<?xml version="1.0" encoding="UTF-8" standalone="no" ?>
<gpx xmlns="http://www.topografix.com/GPX/1/1" xmlns:xsi="http://www.w3.org/2001/XMLSchema-instance" xsi:schemaLocation="http://www.topografix.com/GPX/1/1 http://www.topografix.com/GPX/1/1/gpx.xsd" version="1.1" creator="VisuGPX - https://www.visugpx.com">
  <metadata>
    <name>Charly fly</name>
    <desc><![CDATA[Charly fly]]></desc>
  </metadata>
  <trk>
    <name><![CDATA[ACTIVE LOG120703]]></name>
    <trkseg>
      <trkpt lat="45.31047" lon="5.89094">
        <ele>929.198</ele>
        <time>2016-09-04T10:07:03Z</time>
      </trkpt>
      <trkpt lat="45.31048" lon="5.89095">
        <ele>928.58</ele>
        <time>2016-09-04T10:07:06Z</time>
      </trkpt>
      <trkpt lat="45.31048" lon="5.89095">
        <ele>929.174</ele>
        <time>2016-09-04T10:07:09Z</time>
      </trkpt>
      <trkpt lat="45.31047" lon="5.89095">
        <ele>928.556</ele>
        <time>2016-09-04T10:07:12Z</time>
      </trkpt>
      <trkpt lat="45.31047" lon="5.89095">
        <ele>931.113</ele>
        <time>2016-09-04T10:07:15Z</time>
      </trkpt>
      <trkpt lat="45.31046" lon="5.89095">
        <ele>935.032</ele>
        <time>2016-09-04T10:07:18Z</time>
      </trkpt>
      <trkpt lat="45.31039" lon="5.89096">
        <ele>937.757</ele>
        <time>2016-09-04T10:07:21Z</time>
      </trkpt>
      <trkpt lat="45.31038" lon="5.89096">
        <ele>939.834</ele>
        <time>2016-09-04T10:07:24Z</time>
      </trkpt>
      <trkpt lat="45.31038" lon="5.89096">
        <ele>942.117</ele>
        <time>2016-09-04T10:07:27Z</time>
      </trkpt>
      <trkpt lat="45.31038" lon="5.89095">
        <ele>943.991</ele>
        <time>2016-09-04T10:07:30Z</time>
      </trkpt>
      <trkpt lat="45.31038" lon="5.89095">
        <ele>945.856</ele>
        <time>2016-09-04T10:07:33Z</time>
      </trkpt>
      <trkpt lat="45.31038" lon="5.89096">
        <ele>947.706</ele>
        <time>2016-09-04T10:07:36Z</time>
      </trkpt>
      <trkpt lat="45.31038" lon="5.89096">
        <ele>949.011</ele>
        <time>2016-09-04T10:07:39Z</time>
      </trkpt>
      <trkpt lat="45.31038" lon="5.89096">
        <ele>950.559</ele>
        <time>2016-09-04T10:07:42Z</time>
      </trkpt>
      <trkpt lat="45.31038" lon="5.89096">
        <ele>951.49</ele>
        <time>2016-09-04T10:07:45Z</time>
      </trkpt>
      <trkpt lat="45.31038" lon="5.89096">
        <ele>952.257</ele>
        <time>2016-09-04T10:07:48Z</time>
      </trkpt>
      <trkpt lat="45.31038" lon="5.89096">
        <ele>953.098</ele>
        <time>2016-09-04T10:07:51Z</time>
      </trkpt>
      <trkpt lat="45.31038" lon="5.89096">
        <ele>953.937</ele>
        <time>2016-09-04T10:07:54Z</time>
      </trkpt>
      <trkpt lat="45.31038" lon="5.89096">
        <ele>955.205</ele>
        <time>2016-09-04T10:07:57Z</time>
      </trkpt>
      <trkpt lat="45.31038" lon="5.89096">
        <ele>954.994</ele>
        <time>2016-09-04T10:08:00Z</time>
      </trkpt>
      <trkpt lat="45.31038" lon="5.89096">
        <ele>956.238</ele>
        <time>2016-09-04T10:08:03Z</time>
      </trkpt>
      <trkpt lat="45.31038" lon="5.89096">
        <ele>956.384</ele>
        <time>2016-09-04T10:08:06Z</time>
      </trkpt>
      <trkpt lat="45.31038" lon="5.89096">
        <ele>957.385</ele>
        <time>2016-09-04T10:08:09Z</time>
      </trkpt>
      <trkpt lat="45.31038" lon="5.89096">
        <ele>957.545</ele>
        <time>2016-09-04T10:08:12Z</time>
      </trkpt>
      <trkpt lat="45.31038" lon="5.89096">
        <ele>957.819</ele>
        <time>2016-09-04T10:08:15Z</time>
      </trkpt>
      <trkpt lat="45.31038" lon="5.89096">
        <ele>958.473</ele>
        <time>2016-09-04T10:08:18Z</time>
      </trkpt>
      <trkpt lat="45.31038" lon="5.89096">
        <ele>958.547</ele>
        <time>2016-09-04T10:08:21Z</time>
      </trkpt>
      <trkpt lat="45.31038" lon="5.89096">
        <ele>959.273</ele>
        <time>2016-09-04T10:08:24Z</time>
      </trkpt>
      <trkpt lat="45.31038" lon="5.89096">
        <ele>959.222</ele>
        <time>2016-09-04T10:08:27Z</time>
      </trkpt>
      <trkpt lat="45.31038" lon="5.89096">
        <ele>959.425</ele>
        <time>2016-09-04T10:08:30Z</time>
      </trkpt>
      <trkpt lat="45.31038" lon="5.89096">
        <ele>959.595</ele>
        <time>2016-09-04T10:08:33Z</time>
      </trkpt>
      <trkpt lat="45.31038" lon="5.89096">
        <ele>960.365</ele>
        <time>2016-09-04T10:08:36Z</time>
      </trkpt>
      <trkpt lat="45.31038" lon="5.89096">
        <ele>960.376</ele>
        <time>2016-09-04T10:08:39Z</time>
      </trkpt>
      <trkpt lat="45.31038" lon="5.89096">
        <ele>960.683</ele>
        <time>2016-09-04T10:08:42Z</time>
      </trkpt>
      <trkpt lat="45.31038" lon="5.89096">
        <ele>960.707</ele>
        <time>2016-09-04T10:08:45Z</time>
      </trkpt>
      <trkpt lat="45.31038" lon="5.89096">
        <ele>960.005</ele>
        <time>2016-09-04T10:08:48Z</time>
      </trkpt>
      <trkpt lat="45.31038" lon="5.89096">
        <ele>960.816</ele>
        <time>2016-09-04T10:08:51Z</time>
      </trkpt>
      <trkpt lat="45.31038" lon="5.89096">
        <ele>960.935</ele>
        <time>2016-09-04T10:08:54Z</time>
      </trkpt>
      <trkpt lat="45.31038" lon="5.89096">
        <ele>960.987</ele>
        <time>2016-09-04T10:08:57Z</time>
      </trkpt>
      <trkpt lat="45.31038" lon="5.89096">
        <ele>960.848</ele>
        <time>2016-09-04T10:09:00Z</time>
      </trkpt>
      <trkpt lat="45.31038" lon="5.89096">
        <ele>961.335</ele>
        <time>2016-09-04T10:09:03Z</time>
      </trkpt>
      <trkpt lat="45.31038" lon="5.89096">
        <ele>960.99</ele>
        <time>2016-09-04T10:09:06Z</time>
      </trkpt>
      <trkpt lat="45.31038" lon="5.89096">
        <ele>960.728</ele>
        <time>2016-09-04T10:09:09Z</time>
      </trkpt>
      <trkpt lat="45.31038" lon="5.89096">
        <ele>960.88</ele>
        <time>2016-09-04T10:09:12Z</time>
      </trkpt>
      <trkpt lat="45.31038" lon="5.89096">
        <ele>960.758</ele>
        <time>2016-09-04T10:09:15Z</time>
      </trkpt>
      <trkpt lat="45.31038" lon="5.89096">
        <ele>960.733</ele>
        <time>2016-09-04T10:09:18Z</time>
      </trkpt>
      <trkpt lat="45.31038" lon="5.89096">
        <ele>960.851</ele>
        <time>2016-09-04T10:09:21Z</time>
      </trkpt>
      <trkpt lat="45.31038" lon="5.89096">
        <ele>960.95</ele>
        <time>2016-09-04T10:09:24Z</time>
      </trkpt>
      <trkpt lat="45.31038" lon="5.89096">
        <ele>961.192</ele>
        <time>2016-09-04T10:09:27Z</time>
      </trkpt>
      <trkpt lat="45.31038" lon="5.89096">
        <ele>960.765</ele>
        <time>2016-09-04T10:09:30Z</time>
      </trkpt>
      <trkpt lat="45.31038" lon="5.89096">
        <ele>960.79</ele>
        <time>2016-09-04T10:09:33Z</time>
      </trkpt>
      <trkpt lat="45.31038" lon="5.89096">
        <ele>960.818</ele>
        <time>2016-09-04T10:09:36Z</time>
      </trkpt>
      <trkpt lat="45.31038" lon="5.89096">
        <ele>961.345</ele>
        <time>2016-09-04T10:09:39Z</time>
      </trkpt>
      <trkpt lat="45.31038" lon="5.89096">
        <ele>961.082</ele>
        <time>2016-09-04T10:09:42Z</time>
      </trkpt>
      <trkpt lat="45.31038" lon="5.89096">
        <ele>960.911</ele>
        <time>2016-09-04T10:09:45Z</time>
      </trkpt>
      <trkpt lat="45.31038" lon="5.89096">
        <ele>961.283</ele>
        <time>2016-09-04T10:09:48Z</time>
      </trkpt>
      <trkpt lat="45.31038" lon="5.89096">
        <ele>961.292</ele>
        <time>2016-09-04T10:09:51Z</time>
      </trkpt>
      <trkpt lat="45.31038" lon="5.89096">
        <ele>960.445</ele>
        <time>2016-09-04T10:09:54Z</time>
      </trkpt>
      <trkpt lat="45.31038" lon="5.89096">
        <ele>961.287</ele>
        <time>2016-09-04T10:09:57Z</time>
      </trkpt>
      <trkpt lat="45.31038" lon="5.89096">
        <ele>961.09</ele>
        <time>2016-09-04T10:10:00Z</time>
      </trkpt>
      <trkpt lat="45.31038" lon="5.89096">
        <ele>960.967</ele>
        <time>2016-09-04T10:10:03Z</time>
      </trkpt>
      <trkpt lat="45.31038" lon="5.89096">
        <ele>961.274</ele>
        <time>2016-09-04T10:10:06Z</time>
      </trkpt>
      <trkpt lat="45.31038" lon="5.89096">
        <ele>960.813</ele>
        <time>2016-09-04T10:10:09Z</time>
      </trkpt>
      <trkpt lat="45.31038" lon="5.89096">
        <ele>960.962</ele>
        <time>2016-09-04T10:10:12Z</time>
      </trkpt>
      <trkpt lat="45.31038" lon="5.89096">
        <ele>960.997</ele>
        <time>2016-09-04T10:10:15Z</time>
      </trkpt>
      <trkpt lat="45.31038" lon="5.89096">
        <ele>961.368</ele>
        <time>2016-09-04T10:10:18Z</time>
      </trkpt>
      <trkpt lat="45.31038" lon="5.89096">
        <ele>960.917</ele>
        <time>2016-09-04T10:10:21Z</time>
      </trkpt>
      <trkpt lat="45.31038" lon="5.89096">
        <ele>961.181</ele>
        <time>2016-09-04T10:10:24Z</time>
      </trkpt>
      <trkpt lat="45.31038" lon="5.89096">
        <ele>961.174</ele>
        <time>2016-09-04T10:10:27Z</time>
      </trkpt>
      <trkpt lat="45.31038" lon="5.89096">
        <ele>961.093</ele>
        <time>2016-09-04T10:10:30Z</time>
      </trkpt>
      <trkpt lat="45.31038" lon="5.89096">
        <ele>960.569</ele>
        <time>2016-09-04T10:10:33Z</time>
      </trkpt>
      <trkpt lat="45.31038" lon="5.89096">
        <ele>960.972</ele>
        <time>2016-09-04T10:10:36Z</time>
      </trkpt>
      <trkpt lat="45.31038" lon="5.89096">
        <ele>960.762</ele>
        <time>2016-09-04T10:10:39Z</time>
      </trkpt>
      <trkpt lat="45.31038" lon="5.89096">
        <ele>961.059</ele>
        <time>2016-09-04T10:10:42Z</time>
      </trkpt>
      <trkpt lat="45.31038" lon="5.89096">
        <ele>961.092</ele>
        <time>2016-09-04T10:10:45Z</time>
      </trkpt>
      <trkpt lat="45.31038" lon="5.89096">
        <ele>961.159</ele>
        <time>2016-09-04T10:10:48Z</time>
      </trkpt>
      <trkpt lat="45.31038" lon="5.89096">
        <ele>961.448</ele>
        <time>2016-09-04T10:10:51Z</time>
      </trkpt>
      <trkpt lat="45.31038" lon="5.89096">
        <ele>960.939</ele>
        <time>2016-09-04T10:10:54Z</time>
      </trkpt>
      <trkpt lat="45.31038" lon="5.89096">
        <ele>961.45</ele>
        <time>2016-09-04T10:10:57Z</time>
      </trkpt>
      <trkpt lat="45.31038" lon="5.89096">
        <ele>961.137</ele>
        <time>2016-09-04T10:11:00Z</time>
      </trkpt>
      <trkpt lat="45.31038" lon="5.89096">
        <ele>961.304</ele>
        <time>2016-09-04T10:11:03Z</time>
      </trkpt>
      <trkpt lat="45.31038" lon="5.89096">
        <ele>960.951</ele>
        <time>2016-09-04T10:11:06Z</time>
      </trkpt>
      <trkpt lat="45.31038" lon="5.89096">
        <ele>962.343</ele>
        <time>2016-09-04T10:11:09Z</time>
      </trkpt>
      <trkpt lat="45.31038" lon="5.89096">
        <ele>961.284</ele>
        <time>2016-09-04T10:11:12Z</time>
      </trkpt>
      <trkpt lat="45.31038" lon="5.89096">
        <ele>962.025</ele>
        <time>2016-09-04T10:11:15Z</time>
      </trkpt>
      <trkpt lat="45.31038" lon="5.89096">
        <ele>961.457</ele>
        <time>2016-09-04T10:11:18Z</time>
      </trkpt>
      <trkpt lat="45.31038" lon="5.89096">
        <ele>963.087</ele>
        <time>2016-09-04T10:11:21Z</time>
      </trkpt>
      <trkpt lat="45.31038" lon="5.89096">
        <ele>961.302</ele>
        <time>2016-09-04T10:11:24Z</time>
      </trkpt>
      <trkpt lat="45.31038" lon="5.89096">
        <ele>962.109</ele>
        <time>2016-09-04T10:11:27Z</time>
      </trkpt>
      <trkpt lat="45.31038" lon="5.89096">
        <ele>960.562</ele>
        <time>2016-09-04T10:11:30Z</time>
      </trkpt>
      <trkpt lat="45.31038" lon="5.89096">
        <ele>962.334</ele>
        <time>2016-09-04T10:11:33Z</time>
      </trkpt>
      <trkpt lat="45.31038" lon="5.89096">
        <ele>961.454</ele>
        <time>2016-09-04T10:11:36Z</time>
      </trkpt>
      <trkpt lat="45.31038" lon="5.89096">
        <ele>960.386</ele>
        <time>2016-09-04T10:11:39Z</time>
      </trkpt>
      <trkpt lat="45.31038" lon="5.89096">
        <ele>961.053</ele>
        <time>2016-09-04T10:11:42Z</time>
      </trkpt>
      <trkpt lat="45.31038" lon="5.89096">
        <ele>960.077</ele>
        <time>2016-09-04T10:11:45Z</time>
      </trkpt>
      <trkpt lat="45.31038" lon="5.89096">
        <ele>960.359</ele>
        <time>2016-09-04T10:11:48Z</time>
      </trkpt>
      <trkpt lat="45.31038" lon="5.89096">
        <ele>959.914</ele>
        <time>2016-09-04T10:11:51Z</time>
      </trkpt>
      <trkpt lat="45.31038" lon="5.89096">
        <ele>961.177</ele>
        <time>2016-09-04T10:11:54Z</time>
      </trkpt>
      <trkpt lat="45.31038" lon="5.89096">
        <ele>961.112</ele>
        <time>2016-09-04T10:11:57Z</time>
      </trkpt>
      <trkpt lat="45.31038" lon="5.89096">
        <ele>960.988</ele>
        <time>2016-09-04T10:12:00Z</time>
      </trkpt>
      <trkpt lat="45.31038" lon="5.89096">
        <ele>961.014</ele>
        <time>2016-09-04T10:12:03Z</time>
      </trkpt>
      <trkpt lat="45.31038" lon="5.89096">
        <ele>960.975</ele>
        <time>2016-09-04T10:12:06Z</time>
      </trkpt>
      <trkpt lat="45.31038" lon="5.89096">
        <ele>960.21</ele>
        <time>2016-09-04T10:12:09Z</time>
      </trkpt>
      <trkpt lat="45.31038" lon="5.89096">
        <ele>960.328</ele>
        <time>2016-09-04T10:12:12Z</time>
      </trkpt>
      <trkpt lat="45.31038" lon="5.89096">
        <ele>961.594</ele>
        <time>2016-09-04T10:12:15Z</time>
      </trkpt>
      <trkpt lat="45.31038" lon="5.89096">
        <ele>961.095</ele>
        <time>2016-09-04T10:12:18Z</time>
      </trkpt>
      <trkpt lat="45.31038" lon="5.89096">
        <ele>961.852</ele>
        <time>2016-09-04T10:12:21Z</time>
      </trkpt>
      <trkpt lat="45.31038" lon="5.89096">
        <ele>960.658</ele>
        <time>2016-09-04T10:12:24Z</time>
      </trkpt>
      <trkpt lat="45.31038" lon="5.89096">
        <ele>961.41</ele>
        <time>2016-09-04T10:12:27Z</time>
      </trkpt>
      <trkpt lat="45.31038" lon="5.89096">
        <ele>960.636</ele>
        <time>2016-09-04T10:12:30Z</time>
      </trkpt>
      <trkpt lat="45.31038" lon="5.89096">
        <ele>961.724</ele>
        <time>2016-09-04T10:12:33Z</time>
      </trkpt>
      <trkpt lat="45.31038" lon="5.89096">
        <ele>961.611</ele>
        <time>2016-09-04T10:12:36Z</time>
      </trkpt>
      <trkpt lat="45.31038" lon="5.89096">
        <ele>961.43</ele>
        <time>2016-09-04T10:12:39Z</time>
      </trkpt>
      <trkpt lat="45.31038" lon="5.89096">
        <ele>961.875</ele>
        <time>2016-09-04T10:12:42Z</time>
      </trkpt>
      <trkpt lat="45.31038" lon="5.89096">
        <ele>961.392</ele>
        <time>2016-09-04T10:12:45Z</time>
      </trkpt>
      <trkpt lat="45.31038" lon="5.89096">
        <ele>961.697</ele>
        <time>2016-09-04T10:12:48Z</time>
      </trkpt>
      <trkpt lat="45.31038" lon="5.89096">
        <ele>961.375</ele>
        <time>2016-09-04T10:12:51Z</time>
      </trkpt>
      <trkpt lat="45.31038" lon="5.89096">
        <ele>960.414</ele>
        <time>2016-09-04T10:12:54Z</time>
      </trkpt>
      <trkpt lat="45.31038" lon="5.89096">
        <ele>961.354</ele>
        <time>2016-09-04T10:12:57Z</time>
      </trkpt>
      <trkpt lat="45.31038" lon="5.89096">
        <ele>961.117</ele>
        <time>2016-09-04T10:13:00Z</time>
      </trkpt>
      <trkpt lat="45.31038" lon="5.89096">
        <ele>961.018</ele>
        <time>2016-09-04T10:13:03Z</time>
      </trkpt>
      <trkpt lat="45.31038" lon="5.89096">
        <ele>961.438</ele>
        <time>2016-09-04T10:13:06Z</time>
      </trkpt>
      <trkpt lat="45.31038" lon="5.89096">
        <ele>961.571</ele>
        <time>2016-09-04T10:13:09Z</time>
      </trkpt>
      <trkpt lat="45.31038" lon="5.89096">
        <ele>960.319</ele>
        <time>2016-09-04T10:13:12Z</time>
      </trkpt>
      <trkpt lat="45.31038" lon="5.89096">
        <ele>960.965</ele>
        <time>2016-09-04T10:13:15Z</time>
      </trkpt>
      <trkpt lat="45.31038" lon="5.89096">
        <ele>961.277</ele>
        <time>2016-09-04T10:13:18Z</time>
      </trkpt>
      <trkpt lat="45.31038" lon="5.89096">
        <ele>961.278</ele>
        <time>2016-09-04T10:13:21Z</time>
      </trkpt>
      <trkpt lat="45.31038" lon="5.89096">
        <ele>960.925</ele>
        <time>2016-09-04T10:13:24Z</time>
      </trkpt>
      <trkpt lat="45.31038" lon="5.89096">
        <ele>961.518</ele>
        <time>2016-09-04T10:13:27Z</time>
      </trkpt>
      <trkpt lat="45.31038" lon="5.89096">
        <ele>960.678</ele>
        <time>2016-09-04T10:13:30Z</time>
      </trkpt>
      <trkpt lat="45.31038" lon="5.89096">
        <ele>961.355</ele>
        <time>2016-09-04T10:13:33Z</time>
      </trkpt>
      <trkpt lat="45.31038" lon="5.89096">
        <ele>960.903</ele>
        <time>2016-09-04T10:13:36Z</time>
      </trkpt>
      <trkpt lat="45.31038" lon="5.89096">
        <ele>960.944</ele>
        <time>2016-09-04T10:13:39Z</time>
      </trkpt>
      <trkpt lat="45.31038" lon="5.89096">
        <ele>961.431</ele>
        <time>2016-09-04T10:13:42Z</time>
      </trkpt>
      <trkpt lat="45.31038" lon="5.89096">
        <ele>961.669</ele>
        <time>2016-09-04T10:13:45Z</time>
      </trkpt>
      <trkpt lat="45.31038" lon="5.89096">
        <ele>961.474</ele>
        <time>2016-09-04T10:13:48Z</time>
      </trkpt>
      <trkpt lat="45.31038" lon="5.89096">
        <ele>961.482</ele>
        <time>2016-09-04T10:13:51Z</time>
      </trkpt>
      <trkpt lat="45.31038" lon="5.89096">
        <ele>961.514</ele>
        <time>2016-09-04T10:13:54Z</time>
      </trkpt>
      <trkpt lat="45.31038" lon="5.89096">
        <ele>961.795</ele>
        <time>2016-09-04T10:13:57Z</time>
      </trkpt>
      <trkpt lat="45.31038" lon="5.89096">
        <ele>961.27</ele>
        <time>2016-09-04T10:14:00Z</time>
      </trkpt>
      <trkpt lat="45.31038" lon="5.89096">
        <ele>961.194</ele>
        <time>2016-09-04T10:14:03Z</time>
      </trkpt>
      <trkpt lat="45.31038" lon="5.89096">
        <ele>962.051</ele>
        <time>2016-09-04T10:14:06Z</time>
      </trkpt>
      <trkpt lat="45.31038" lon="5.89096">
        <ele>961.303</ele>
        <time>2016-09-04T10:14:09Z</time>
      </trkpt>
      <trkpt lat="45.31038" lon="5.89096">
        <ele>961.716</ele>
        <time>2016-09-04T10:14:12Z</time>
      </trkpt>
      <trkpt lat="45.31038" lon="5.89096">
        <ele>960.834</ele>
        <time>2016-09-04T10:14:15Z</time>
      </trkpt>
      <trkpt lat="45.31038" lon="5.89096">
        <ele>961.559</ele>
        <time>2016-09-04T10:14:18Z</time>
      </trkpt>
      <trkpt lat="45.31038" lon="5.89096">
        <ele>961.274</ele>
        <time>2016-09-04T10:14:21Z</time>
      </trkpt>
      <trkpt lat="45.31038" lon="5.89096">
        <ele>960.82</ele>
        <time>2016-09-04T10:14:24Z</time>
      </trkpt>
      <trkpt lat="45.31038" lon="5.89096">
        <ele>961.225</ele>
        <time>2016-09-04T10:14:27Z</time>
      </trkpt>
      <trkpt lat="45.31038" lon="5.89096">
        <ele>960.996</ele>
        <time>2016-09-04T10:14:30Z</time>
      </trkpt>
      <trkpt lat="45.31038" lon="5.89096">
        <ele>961.491</ele>
        <time>2016-09-04T10:14:33Z</time>
      </trkpt>
      <trkpt lat="45.31038" lon="5.89096">
        <ele>961.457</ele>
        <time>2016-09-04T10:14:36Z</time>
      </trkpt>
      <trkpt lat="45.31038" lon="5.89096">
        <ele>960.906</ele>
        <time>2016-09-04T10:14:39Z</time>
      </trkpt>
      <trkpt lat="45.31038" lon="5.89096">
        <ele>961.335</ele>
        <time>2016-09-04T10:14:42Z</time>
      </trkpt>
      <trkpt lat="45.31038" lon="5.89096">
        <ele>961.486</ele>
        <time>2016-09-04T10:14:45Z</time>
      </trkpt>
      <trkpt lat="45.31038" lon="5.89096">
        <ele>961.297</ele>
        <time>2016-09-04T10:14:48Z</time>
      </trkpt>
      <trkpt lat="45.31038" lon="5.89096">
        <ele>961.511</ele>
        <time>2016-09-04T10:14:51Z</time>
      </trkpt>
      <trkpt lat="45.31038" lon="5.89096">
        <ele>961.683</ele>
        <time>2016-09-04T10:14:54Z</time>
      </trkpt>
      <trkpt lat="45.31038" lon="5.89096">
        <ele>961.71</ele>
        <time>2016-09-04T10:14:57Z</time>
      </trkpt>
      <trkpt lat="45.31038" lon="5.89096">
        <ele>961.462</ele>
        <time>2016-09-04T10:15:00Z</time>
      </trkpt>
      <trkpt lat="45.31038" lon="5.89096">
        <ele>961.684</ele>
        <time>2016-09-04T10:15:03Z</time>
      </trkpt>
      <trkpt lat="45.31038" lon="5.89096">
        <ele>961.33</ele>
        <time>2016-09-04T10:15:06Z</time>
      </trkpt>
      <trkpt lat="45.31038" lon="5.89096">
        <ele>961.603</ele>
        <time>2016-09-04T10:15:09Z</time>
      </trkpt>
      <trkpt lat="45.31038" lon="5.89096">
        <ele>961.225</ele>
        <time>2016-09-04T10:15:12Z</time>
      </trkpt>
      <trkpt lat="45.31038" lon="5.89096">
        <ele>961.331</ele>
        <time>2016-09-04T10:15:15Z</time>
      </trkpt>
      <trkpt lat="45.31038" lon="5.89096">
        <ele>961.324</ele>
        <time>2016-09-04T10:15:18Z</time>
      </trkpt>
      <trkpt lat="45.31038" lon="5.89096">
        <ele>961.612</ele>
        <time>2016-09-04T10:15:21Z</time>
      </trkpt>
      <trkpt lat="45.31038" lon="5.89096">
        <ele>961.068</ele>
        <time>2016-09-04T10:15:24Z</time>
      </trkpt>
      <trkpt lat="45.31038" lon="5.89096">
        <ele>961.325</ele>
        <time>2016-09-04T10:15:27Z</time>
      </trkpt>
      <trkpt lat="45.31038" lon="5.89096">
        <ele>961.45</ele>
        <time>2016-09-04T10:15:30Z</time>
      </trkpt>
      <trkpt lat="45.31038" lon="5.89096">
        <ele>961.451</ele>
        <time>2016-09-04T10:15:33Z</time>
      </trkpt>
      <trkpt lat="45.31038" lon="5.89096">
        <ele>961.343</ele>
        <time>2016-09-04T10:15:36Z</time>
      </trkpt>
      <trkpt lat="45.31038" lon="5.89096">
        <ele>961.607</ele>
        <time>2016-09-04T10:15:39Z</time>
      </trkpt>
      <trkpt lat="45.31038" lon="5.89096">
        <ele>961.674</ele>
        <time>2016-09-04T10:15:42Z</time>
      </trkpt>
      <trkpt lat="45.31038" lon="5.89096">
        <ele>961.296</ele>
        <time>2016-09-04T10:15:45Z</time>
      </trkpt>
      <trkpt lat="45.31038" lon="5.89096">
        <ele>961.418</ele>
        <time>2016-09-04T10:15:48Z</time>
      </trkpt>
      <trkpt lat="45.31038" lon="5.89096">
        <ele>961.313</ele>
        <time>2016-09-04T10:15:51Z</time>
      </trkpt>
      <trkpt lat="45.31038" lon="5.89096">
        <ele>961.469</ele>
        <time>2016-09-04T10:15:54Z</time>
      </trkpt>
      <trkpt lat="45.31038" lon="5.89096">
        <ele>961.346</ele>
        <time>2016-09-04T10:15:57Z</time>
      </trkpt>
      <trkpt lat="45.31038" lon="5.89096">
        <ele>961.233</ele>
        <time>2016-09-04T10:16:00Z</time>
      </trkpt>
      <trkpt lat="45.31038" lon="5.89096">
        <ele>961.242</ele>
        <time>2016-09-04T10:16:03Z</time>
      </trkpt>
      <trkpt lat="45.31038" lon="5.89096">
        <ele>961.998</ele>
        <time>2016-09-04T10:16:06Z</time>
      </trkpt>
      <trkpt lat="45.31038" lon="5.89096">
        <ele>961.498</ele>
        <time>2016-09-04T10:16:09Z</time>
      </trkpt>
      <trkpt lat="45.31038" lon="5.89096">
        <ele>961.728</ele>
        <time>2016-09-04T10:16:12Z</time>
      </trkpt>
      <trkpt lat="45.31038" lon="5.89096">
        <ele>962.082</ele>
        <time>2016-09-04T10:16:15Z</time>
      </trkpt>
      <trkpt lat="45.31038" lon="5.89096">
        <ele>961.751</ele>
        <time>2016-09-04T10:16:18Z</time>
      </trkpt>
      <trkpt lat="45.31038" lon="5.89096">
        <ele>961.414</ele>
        <time>2016-09-04T10:16:21Z</time>
      </trkpt>
      <trkpt lat="45.31038" lon="5.89096">
        <ele>961.464</ele>
        <time>2016-09-04T10:16:24Z</time>
      </trkpt>
      <trkpt lat="45.31038" lon="5.89096">
        <ele>961.456</ele>
        <time>2016-09-04T10:16:27Z</time>
      </trkpt>
      <trkpt lat="45.31038" lon="5.89096">
        <ele>961.728</ele>
        <time>2016-09-04T10:16:30Z</time>
      </trkpt>
      <trkpt lat="45.31038" lon="5.89096">
        <ele>961.612</ele>
        <time>2016-09-04T10:16:33Z</time>
      </trkpt>
      <trkpt lat="45.31038" lon="5.89096">
        <ele>961.227</ele>
        <time>2016-09-04T10:16:36Z</time>
      </trkpt>
      <trkpt lat="45.31038" lon="5.89096">
        <ele>961.103</ele>
        <time>2016-09-04T10:16:39Z</time>
      </trkpt>
      <trkpt lat="45.31038" lon="5.89096">
        <ele>961.416</ele>
        <time>2016-09-04T10:16:42Z</time>
      </trkpt>
      <trkpt lat="45.31038" lon="5.89096">
        <ele>961.926</ele>
        <time>2016-09-04T10:16:45Z</time>
      </trkpt>
      <trkpt lat="45.31038" lon="5.89096">
        <ele>961.393</ele>
        <time>2016-09-04T10:16:48Z</time>
      </trkpt>
      <trkpt lat="45.31038" lon="5.89096">
        <ele>961.581</ele>
        <time>2016-09-04T10:16:51Z</time>
      </trkpt>
      <trkpt lat="45.31038" lon="5.89096">
        <ele>961.623</ele>
        <time>2016-09-04T10:16:54Z</time>
      </trkpt>
      <trkpt lat="45.31038" lon="5.89096">
        <ele>961.079</ele>
        <time>2016-09-04T10:16:57Z</time>
      </trkpt>
      <trkpt lat="45.31038" lon="5.89096">
        <ele>961.873</ele>
        <time>2016-09-04T10:17:00Z</time>
      </trkpt>
      <trkpt lat="45.31038" lon="5.89096">
        <ele>961.378</ele>
        <time>2016-09-04T10:17:03Z</time>
      </trkpt>
      <trkpt lat="45.31038" lon="5.89096">
        <ele>961.387</ele>
        <time>2016-09-04T10:17:06Z</time>
      </trkpt>
      <trkpt lat="45.31038" lon="5.89096">
        <ele>961.559</ele>
        <time>2016-09-04T10:17:09Z</time>
      </trkpt>
      <trkpt lat="45.31038" lon="5.89096">
        <ele>961.298</ele>
        <time>2016-09-04T10:17:12Z</time>
      </trkpt>
      <trkpt lat="45.31038" lon="5.89096">
        <ele>961.544</ele>
        <time>2016-09-04T10:17:15Z</time>
      </trkpt>
      <trkpt lat="45.31038" lon="5.89096">
        <ele>961.544</ele>
        <time>2016-09-04T10:17:18Z</time>
      </trkpt>
      <trkpt lat="45.31038" lon="5.89096">
        <ele>961.233</ele>
        <time>2016-09-04T10:17:21Z</time>
      </trkpt>
      <trkpt lat="45.31038" lon="5.89096">
        <ele>961.579</ele>
        <time>2016-09-04T10:17:24Z</time>
      </trkpt>
      <trkpt lat="45.31038" lon="5.89096">
        <ele>961.841</ele>
        <time>2016-09-04T10:17:27Z</time>
      </trkpt>
      <trkpt lat="45.31038" lon="5.89096">
        <ele>961.692</ele>
        <time>2016-09-04T10:17:30Z</time>
      </trkpt>
      <trkpt lat="45.31038" lon="5.89096">
        <ele>961.494</ele>
        <time>2016-09-04T10:17:33Z</time>
      </trkpt>
      <trkpt lat="45.31038" lon="5.89096">
        <ele>961.782</ele>
        <time>2016-09-04T10:17:36Z</time>
      </trkpt>
      <trkpt lat="45.31038" lon="5.89096">
        <ele>961.397</ele>
        <time>2016-09-04T10:17:39Z</time>
      </trkpt>
      <trkpt lat="45.31038" lon="5.89096">
        <ele>961.265</ele>
        <time>2016-09-04T10:17:42Z</time>
      </trkpt>
      <trkpt lat="45.31038" lon="5.89096">
        <ele>961.455</ele>
        <time>2016-09-04T10:17:45Z</time>
      </trkpt>
      <trkpt lat="45.31038" lon="5.89096">
        <ele>961.456</ele>
        <time>2016-09-04T10:17:48Z</time>
      </trkpt>
      <trkpt lat="45.31038" lon="5.89096">
        <ele>961.382</ele>
        <time>2016-09-04T10:17:51Z</time>
      </trkpt>
      <trkpt lat="45.31038" lon="5.89096">
        <ele>961.456</ele>
        <time>2016-09-04T10:17:54Z</time>
      </trkpt>
      <trkpt lat="45.31038" lon="5.89096">
        <ele>961.538</ele>
        <time>2016-09-04T10:17:57Z</time>
      </trkpt>
      <trkpt lat="45.31038" lon="5.89096">
        <ele>961.201</ele>
        <time>2016-09-04T10:18:00Z</time>
      </trkpt>
      <trkpt lat="45.31038" lon="5.89096">
        <ele>961.489</ele>
        <time>2016-09-04T10:18:03Z</time>
      </trkpt>
      <trkpt lat="45.31038" lon="5.89096">
        <ele>961.785</ele>
        <time>2016-09-04T10:18:06Z</time>
      </trkpt>
      <trkpt lat="45.31038" lon="5.89096">
        <ele>961.621</ele>
        <time>2016-09-04T10:18:09Z</time>
      </trkpt>
      <trkpt lat="45.31038" lon="5.89096">
        <ele>961.341</ele>
        <time>2016-09-04T10:18:12Z</time>
      </trkpt>
      <trkpt lat="45.31038" lon="5.89096">
        <ele>961.524</ele>
        <time>2016-09-04T10:18:15Z</time>
      </trkpt>
      <trkpt lat="45.31038" lon="5.89096">
        <ele>961.31</ele>
        <time>2016-09-04T10:18:18Z</time>
      </trkpt>
      <trkpt lat="45.31038" lon="5.89096">
        <ele>961.393</ele>
        <time>2016-09-04T10:18:21Z</time>
      </trkpt>
      <trkpt lat="45.31038" lon="5.89096">
        <ele>961.303</ele>
        <time>2016-09-04T10:18:24Z</time>
      </trkpt>
      <trkpt lat="45.31038" lon="5.89096">
        <ele>961.311</ele>
        <time>2016-09-04T10:18:27Z</time>
      </trkpt>
      <trkpt lat="45.31038" lon="5.89096">
        <ele>961.262</ele>
        <time>2016-09-04T10:18:30Z</time>
      </trkpt>
      <trkpt lat="45.31038" lon="5.89096">
        <ele>961.321</ele>
        <time>2016-09-04T10:18:33Z</time>
      </trkpt>
      <trkpt lat="45.31038" lon="5.89096">
        <ele>961.741</ele>
        <time>2016-09-04T10:18:36Z</time>
      </trkpt>
      <trkpt lat="45.31038" lon="5.89096">
        <ele>961.699</ele>
        <time>2016-09-04T10:18:39Z</time>
      </trkpt>
      <trkpt lat="45.31038" lon="5.89096">
        <ele>961.469</ele>
        <time>2016-09-04T10:18:42Z</time>
      </trkpt>
      <trkpt lat="45.31038" lon="5.89096">
        <ele>961.353</ele>
        <time>2016-09-04T10:18:45Z</time>
      </trkpt>
      <trkpt lat="45.31038" lon="5.89096">
        <ele>961.657</ele>
        <time>2016-09-04T10:18:48Z</time>
      </trkpt>
      <trkpt lat="45.31038" lon="5.89096">
        <ele>961.353</ele>
        <time>2016-09-04T10:18:51Z</time>
      </trkpt>
      <trkpt lat="45.31038" lon="5.89096">
        <ele>961.502</ele>
        <time>2016-09-04T10:18:54Z</time>
      </trkpt>
      <trkpt lat="45.31038" lon="5.89096">
        <ele>961.502</ele>
        <time>2016-09-04T10:18:57Z</time>
      </trkpt>
      <trkpt lat="45.31038" lon="5.89096">
        <ele>961.241</ele>
        <time>2016-09-04T10:19:00Z</time>
      </trkpt>
      <trkpt lat="45.31038" lon="5.89096">
        <ele>961.281</ele>
        <time>2016-09-04T10:19:03Z</time>
      </trkpt>
      <trkpt lat="45.31038" lon="5.89096">
        <ele>961.593</ele>
        <time>2016-09-04T10:19:06Z</time>
      </trkpt>
      <trkpt lat="45.31038" lon="5.89096">
        <ele>961.323</ele>
        <time>2016-09-04T10:19:09Z</time>
      </trkpt>
      <trkpt lat="45.31038" lon="5.89096">
        <ele>961.091</ele>
        <time>2016-09-04T10:19:12Z</time>
      </trkpt>
      <trkpt lat="45.31038" lon="5.89096">
        <ele>961.422</ele>
        <time>2016-09-04T10:19:15Z</time>
      </trkpt>
      <trkpt lat="45.31038" lon="5.89096">
        <ele>961.628</ele>
        <time>2016-09-04T10:19:18Z</time>
      </trkpt>
      <trkpt lat="45.31038" lon="5.89096">
        <ele>961.702</ele>
        <time>2016-09-04T10:19:21Z</time>
      </trkpt>
      <trkpt lat="45.31038" lon="5.89096">
        <ele>961.126</ele>
        <time>2016-09-04T10:19:24Z</time>
      </trkpt>
      <trkpt lat="45.31038" lon="5.89096">
        <ele>961.703</ele>
        <time>2016-09-04T10:19:27Z</time>
      </trkpt>
      <trkpt lat="45.31038" lon="5.89096">
        <ele>961.325</ele>
        <time>2016-09-04T10:19:30Z</time>
      </trkpt>
      <trkpt lat="45.31038" lon="5.89096">
        <ele>961.193</ele>
        <time>2016-09-04T10:19:33Z</time>
      </trkpt>
      <trkpt lat="45.31038" lon="5.89096">
        <ele>961.497</ele>
        <time>2016-09-04T10:19:36Z</time>
      </trkpt>
      <trkpt lat="45.31038" lon="5.89096">
        <ele>961.473</ele>
        <time>2016-09-04T10:19:39Z</time>
      </trkpt>
      <trkpt lat="45.31038" lon="5.89096">
        <ele>961.704</ele>
        <time>2016-09-04T10:19:42Z</time>
      </trkpt>
      <trkpt lat="45.31038" lon="5.89096">
        <ele>961.376</ele>
        <time>2016-09-04T10:19:45Z</time>
      </trkpt>
      <trkpt lat="45.31038" lon="5.89096">
        <ele>961.416</ele>
        <time>2016-09-04T10:19:48Z</time>
      </trkpt>
      <trkpt lat="45.31038" lon="5.89096">
        <ele>961.392</ele>
        <time>2016-09-04T10:19:51Z</time>
      </trkpt>
      <trkpt lat="45.31038" lon="5.89096">
        <ele>961.712</ele>
        <time>2016-09-04T10:19:54Z</time>
      </trkpt>
      <trkpt lat="45.31038" lon="5.89096">
        <ele>961.506</ele>
        <time>2016-09-04T10:19:57Z</time>
      </trkpt>
      <trkpt lat="45.31038" lon="5.89096">
        <ele>961.591</ele>
        <time>2016-09-04T10:20:00Z</time>
      </trkpt>
      <trkpt lat="45.31038" lon="5.89095">
        <ele>961.105</ele>
        <time>2016-09-04T10:20:03Z</time>
      </trkpt>
      <trkpt lat="45.31038" lon="5.89095">
        <ele>961.401</ele>
        <time>2016-09-04T10:20:06Z</time>
      </trkpt>
      <trkpt lat="45.31038" lon="5.89096">
        <ele>961.706</ele>
        <time>2016-09-04T10:20:09Z</time>
      </trkpt>
      <trkpt lat="45.31038" lon="5.89096">
        <ele>961.386</ele>
        <time>2016-09-04T10:20:12Z</time>
      </trkpt>
      <trkpt lat="45.31038" lon="5.89096">
        <ele>961.476</ele>
        <time>2016-09-04T10:20:15Z</time>
      </trkpt>
      <trkpt lat="45.31038" lon="5.89096">
        <ele>961.368</ele>
        <time>2016-09-04T10:20:18Z</time>
      </trkpt>
      <trkpt lat="45.31038" lon="5.89095">
        <ele>961.403</ele>
        <time>2016-09-04T10:20:21Z</time>
      </trkpt>
      <trkpt lat="45.31038" lon="5.89095">
        <ele>961.247</ele>
        <time>2016-09-04T10:20:24Z</time>
      </trkpt>
      <trkpt lat="45.31038" lon="5.89095">
        <ele>961.272</ele>
        <time>2016-09-04T10:20:27Z</time>
      </trkpt>
      <trkpt lat="45.31038" lon="5.89095">
        <ele>961.238</ele>
        <time>2016-09-04T10:20:30Z</time>
      </trkpt>
      <trkpt lat="45.31038" lon="5.89096">
        <ele>961.249</ele>
        <time>2016-09-04T10:20:33Z</time>
      </trkpt>
      <trkpt lat="45.31038" lon="5.89096">
        <ele>961.028</ele>
        <time>2016-09-04T10:20:36Z</time>
      </trkpt>
      <trkpt lat="45.31038" lon="5.89096">
        <ele>961.126</ele>
        <time>2016-09-04T10:20:39Z</time>
      </trkpt>
      <trkpt lat="45.31038" lon="5.89096">
        <ele>960.906</ele>
        <time>2016-09-04T10:20:42Z</time>
      </trkpt>
      <trkpt lat="45.31038" lon="5.89095">
        <ele>960.732</ele>
        <time>2016-09-04T10:20:45Z</time>
      </trkpt>
      <trkpt lat="45.31038" lon="5.89096">
        <ele>961.755</ele>
        <time>2016-09-04T10:20:48Z</time>
      </trkpt>
      <trkpt lat="45.31038" lon="5.89097">
        <ele>960.627</ele>
        <time>2016-09-04T10:20:51Z</time>
      </trkpt>
      <trkpt lat="45.31038" lon="5.89098">
        <ele>962.017</ele>
        <time>2016-09-04T10:20:54Z</time>
      </trkpt>
      <trkpt lat="45.31038" lon="5.89098">
        <ele>962.569</ele>
        <time>2016-09-04T10:20:57Z</time>
      </trkpt>
      <trkpt lat="45.31038" lon="5.89098">
        <ele>961.4</ele>
        <time>2016-09-04T10:21:00Z</time>
      </trkpt>
      <trkpt lat="45.31038" lon="5.89099">
        <ele>961.506</ele>
        <time>2016-09-04T10:21:03Z</time>
      </trkpt>
      <trkpt lat="45.31038" lon="5.89099">
        <ele>962.074</ele>
        <time>2016-09-04T10:21:06Z</time>
      </trkpt>
      <trkpt lat="45.31038" lon="5.89098">
        <ele>962.502</ele>
        <time>2016-09-04T10:21:09Z</time>
      </trkpt>
      <trkpt lat="45.31038" lon="5.89098">
        <ele>961.949</ele>
        <time>2016-09-04T10:21:12Z</time>
      </trkpt>
      <trkpt lat="45.31038" lon="5.89098">
        <ele>961.481</ele>
        <time>2016-09-04T10:21:15Z</time>
      </trkpt>
      <trkpt lat="45.31038" lon="5.89098">
        <ele>962.015</ele>
        <time>2016-09-04T10:21:18Z</time>
      </trkpt>
      <trkpt lat="45.31038" lon="5.89098">
        <ele>962.108</ele>
        <time>2016-09-04T10:21:21Z</time>
      </trkpt>
      <trkpt lat="45.31038" lon="5.89098">
        <ele>961.941</ele>
        <time>2016-09-04T10:21:24Z</time>
      </trkpt>
      <trkpt lat="45.31038" lon="5.89098">
        <ele>962.385</ele>
        <time>2016-09-04T10:21:27Z</time>
      </trkpt>
      <trkpt lat="45.31038" lon="5.89098">
        <ele>961.875</ele>
        <time>2016-09-04T10:21:30Z</time>
      </trkpt>
      <trkpt lat="45.31038" lon="5.89098">
        <ele>961.859</ele>
        <time>2016-09-04T10:21:33Z</time>
      </trkpt>
      <trkpt lat="45.31038" lon="5.89098">
        <ele>961.587</ele>
        <time>2016-09-04T10:21:36Z</time>
      </trkpt>
      <trkpt lat="45.31038" lon="5.89098">
        <ele>962.05</ele>
        <time>2016-09-04T10:21:39Z</time>
      </trkpt>
      <trkpt lat="45.31038" lon="5.89098">
        <ele>961.933</ele>
        <time>2016-09-04T10:21:42Z</time>
      </trkpt>
      <trkpt lat="45.31038" lon="5.89098">
        <ele>962.221</ele>
        <time>2016-09-04T10:21:45Z</time>
      </trkpt>
      <trkpt lat="45.31038" lon="5.89098">
        <ele>962.041</ele>
        <time>2016-09-04T10:21:48Z</time>
      </trkpt>
      <trkpt lat="45.31038" lon="5.89098">
        <ele>961.637</ele>
        <time>2016-09-04T10:21:51Z</time>
      </trkpt>
      <trkpt lat="45.31038" lon="5.89098">
        <ele>961.407</ele>
        <time>2016-09-04T10:21:54Z</time>
      </trkpt>
      <trkpt lat="45.31038" lon="5.89098">
        <ele>961.349</ele>
        <time>2016-09-04T10:21:57Z</time>
      </trkpt>
      <trkpt lat="45.31038" lon="5.89098">
        <ele>961.498</ele>
        <time>2016-09-04T10:22:00Z</time>
      </trkpt>
      <trkpt lat="45.31038" lon="5.89098">
        <ele>961.557</ele>
        <time>2016-09-04T10:22:03Z</time>
      </trkpt>
      <trkpt lat="45.31038" lon="5.89098">
        <ele>961.631</ele>
        <time>2016-09-04T10:22:06Z</time>
      </trkpt>
      <trkpt lat="45.31038" lon="5.89098">
        <ele>961.418</ele>
        <time>2016-09-04T10:22:09Z</time>
      </trkpt>
      <trkpt lat="45.31038" lon="5.89098">
        <ele>961.096</ele>
        <time>2016-09-04T10:22:12Z</time>
      </trkpt>
      <trkpt lat="45.31038" lon="5.89098">
        <ele>961.963</ele>
        <time>2016-09-04T10:22:15Z</time>
      </trkpt>
      <trkpt lat="45.31038" lon="5.89098">
        <ele>961.805</ele>
        <time>2016-09-04T10:22:18Z</time>
      </trkpt>
      <trkpt lat="45.31038" lon="5.89098">
        <ele>961.715</ele>
        <time>2016-09-04T10:22:21Z</time>
      </trkpt>
      <trkpt lat="45.31038" lon="5.89098">
        <ele>962.341</ele>
        <time>2016-09-04T10:22:24Z</time>
      </trkpt>
      <trkpt lat="45.31038" lon="5.89098">
        <ele>961.757</ele>
        <time>2016-09-04T10:22:27Z</time>
      </trkpt>
      <trkpt lat="45.31038" lon="5.89098">
        <ele>961.75</ele>
        <time>2016-09-04T10:22:30Z</time>
      </trkpt>
      <trkpt lat="45.31038" lon="5.89098">
        <ele>961.964</ele>
        <time>2016-09-04T10:22:33Z</time>
      </trkpt>
      <trkpt lat="45.31038" lon="5.89098">
        <ele>961.879</ele>
        <time>2016-09-04T10:22:36Z</time>
      </trkpt>
      <trkpt lat="45.31038" lon="5.89098">
        <ele>961.824</ele>
        <time>2016-09-04T10:22:39Z</time>
      </trkpt>
      <trkpt lat="45.31038" lon="5.89098">
        <ele>962.151</ele>
        <time>2016-09-04T10:22:42Z</time>
      </trkpt>
      <trkpt lat="45.31038" lon="5.89098">
        <ele>961.878</ele>
        <time>2016-09-04T10:22:45Z</time>
      </trkpt>
      <trkpt lat="45.31038" lon="5.89098">
        <ele>962.496</ele>
        <time>2016-09-04T10:22:48Z</time>
      </trkpt>
      <trkpt lat="45.31038" lon="5.89098">
        <ele>962.347</ele>
        <time>2016-09-04T10:22:51Z</time>
      </trkpt>
      <trkpt lat="45.31038" lon="5.89098">
        <ele>961.836</ele>
        <time>2016-09-04T10:22:54Z</time>
      </trkpt>
      <trkpt lat="45.31038" lon="5.89098">
        <ele>961.669</ele>
        <time>2016-09-04T10:22:57Z</time>
      </trkpt>
      <trkpt lat="45.31038" lon="5.89098">
        <ele>961.96</ele>
        <time>2016-09-04T10:23:00Z</time>
      </trkpt>
      <trkpt lat="45.31038" lon="5.89098">
        <ele>961.4</ele>
        <time>2016-09-04T10:23:03Z</time>
      </trkpt>
      <trkpt lat="45.31038" lon="5.89098">
        <ele>961.778</ele>
        <time>2016-09-04T10:23:06Z</time>
      </trkpt>
      <trkpt lat="45.31038" lon="5.89098">
        <ele>961.942</ele>
        <time>2016-09-04T10:23:09Z</time>
      </trkpt>
      <trkpt lat="45.31038" lon="5.89098">
        <ele>961.754</ele>
        <time>2016-09-04T10:23:12Z</time>
      </trkpt>
      <trkpt lat="45.31038" lon="5.89098">
        <ele>961.984</ele>
        <time>2016-09-04T10:23:15Z</time>
      </trkpt>
      <trkpt lat="45.31038" lon="5.89098">
        <ele>962.032</ele>
        <time>2016-09-04T10:23:18Z</time>
      </trkpt>
      <trkpt lat="45.31038" lon="5.89098">
        <ele>961.786</ele>
        <time>2016-09-04T10:23:21Z</time>
      </trkpt>
      <trkpt lat="45.31038" lon="5.89098">
        <ele>961.86</ele>
        <time>2016-09-04T10:23:24Z</time>
      </trkpt>
      <trkpt lat="45.31038" lon="5.89098">
        <ele>961.949</ele>
        <time>2016-09-04T10:23:27Z</time>
      </trkpt>
      <trkpt lat="45.31038" lon="5.89098">
        <ele>961.835</ele>
        <time>2016-09-04T10:23:30Z</time>
      </trkpt>
      <trkpt lat="45.31038" lon="5.89098">
        <ele>961.917</ele>
        <time>2016-09-04T10:23:33Z</time>
      </trkpt>
      <trkpt lat="45.31038" lon="5.89098">
        <ele>962.073</ele>
        <time>2016-09-04T10:23:36Z</time>
      </trkpt>
      <trkpt lat="45.31038" lon="5.89098">
        <ele>961.637</ele>
        <time>2016-09-04T10:23:39Z</time>
      </trkpt>
      <trkpt lat="45.31038" lon="5.89098">
        <ele>961.785</ele>
        <time>2016-09-04T10:23:42Z</time>
      </trkpt>
      <trkpt lat="45.31038" lon="5.89098">
        <ele>961.621</ele>
        <time>2016-09-04T10:23:45Z</time>
      </trkpt>
      <trkpt lat="45.31038" lon="5.89098">
        <ele>961.598</ele>
        <time>2016-09-04T10:23:48Z</time>
      </trkpt>
      <trkpt lat="45.31038" lon="5.89098">
        <ele>961.68</ele>
        <time>2016-09-04T10:23:51Z</time>
      </trkpt>
      <trkpt lat="45.31038" lon="5.89098">
        <ele>961.754</ele>
        <time>2016-09-04T10:23:54Z</time>
      </trkpt>
      <trkpt lat="45.31038" lon="5.89098">
        <ele>962.353</ele>
        <time>2016-09-04T10:23:57Z</time>
      </trkpt>
      <trkpt lat="45.31038" lon="5.89098">
        <ele>961.933</ele>
        <time>2016-09-04T10:24:00Z</time>
      </trkpt>
      <trkpt lat="45.31038" lon="5.89098">
        <ele>961.703</ele>
        <time>2016-09-04T10:24:03Z</time>
      </trkpt>
      <trkpt lat="45.31038" lon="5.89098">
        <ele>962.064</ele>
        <time>2016-09-04T10:24:06Z</time>
      </trkpt>
      <trkpt lat="45.31038" lon="5.89098">
        <ele>961.53</ele>
        <time>2016-09-04T10:24:09Z</time>
      </trkpt>
      <trkpt lat="45.31038" lon="5.89098">
        <ele>961.652</ele>
        <time>2016-09-04T10:24:12Z</time>
      </trkpt>
      <trkpt lat="45.31038" lon="5.89098">
        <ele>961.908</ele>
        <time>2016-09-04T10:24:15Z</time>
      </trkpt>
      <trkpt lat="45.31038" lon="5.89098">
        <ele>961.784</ele>
        <time>2016-09-04T10:24:18Z</time>
      </trkpt>
      <trkpt lat="45.31038" lon="5.89098">
        <ele>961.791</ele>
        <time>2016-09-04T10:24:21Z</time>
      </trkpt>
      <trkpt lat="45.31038" lon="5.89098">
        <ele>961.643</ele>
        <time>2016-09-04T10:24:24Z</time>
      </trkpt>
      <trkpt lat="45.31038" lon="5.89098">
        <ele>962.039</ele>
        <time>2016-09-04T10:24:27Z</time>
      </trkpt>
      <trkpt lat="45.31038" lon="5.89097">
        <ele>961.946</ele>
        <time>2016-09-04T10:24:30Z</time>
      </trkpt>
      <trkpt lat="45.31037" lon="5.89097">
        <ele>961.742</ele>
        <time>2016-09-04T10:24:33Z</time>
      </trkpt>
      <trkpt lat="45.31036" lon="5.89096">
        <ele>961.855</ele>
        <time>2016-09-04T10:24:36Z</time>
      </trkpt>
      <trkpt lat="45.31036" lon="5.89095">
        <ele>961.879</ele>
        <time>2016-09-04T10:24:39Z</time>
      </trkpt>
      <trkpt lat="45.31036" lon="5.89095">
        <ele>961.703</ele>
        <time>2016-09-04T10:24:42Z</time>
      </trkpt>
      <trkpt lat="45.31036" lon="5.89095">
        <ele>961.866</ele>
        <time>2016-09-04T10:24:45Z</time>
      </trkpt>
      <trkpt lat="45.31036" lon="5.89095">
        <ele>961.865</ele>
        <time>2016-09-04T10:24:48Z</time>
      </trkpt>
      <trkpt lat="45.31036" lon="5.89095">
        <ele>961.543</ele>
        <time>2016-09-04T10:24:51Z</time>
      </trkpt>
      <trkpt lat="45.31036" lon="5.89095">
        <ele>961.78</ele>
        <time>2016-09-04T10:24:54Z</time>
      </trkpt>
      <trkpt lat="45.31036" lon="5.89095">
        <ele>961.533</ele>
        <time>2016-09-04T10:24:57Z</time>
      </trkpt>
      <trkpt lat="45.31036" lon="5.89095">
        <ele>961.646</ele>
        <time>2016-09-04T10:25:00Z</time>
      </trkpt>
      <trkpt lat="45.31036" lon="5.89095">
        <ele>961.496</ele>
        <time>2016-09-04T10:25:03Z</time>
      </trkpt>
      <trkpt lat="45.31036" lon="5.89095">
        <ele>961.858</ele>
        <time>2016-09-04T10:25:06Z</time>
      </trkpt>
      <trkpt lat="45.31036" lon="5.89095">
        <ele>961.463</ele>
        <time>2016-09-04T10:25:09Z</time>
      </trkpt>
      <trkpt lat="45.31036" lon="5.89095">
        <ele>961.388</ele>
        <time>2016-09-04T10:25:12Z</time>
      </trkpt>
      <trkpt lat="45.31036" lon="5.89095">
        <ele>961.462</ele>
        <time>2016-09-04T10:25:15Z</time>
      </trkpt>
      <trkpt lat="45.31036" lon="5.89095">
        <ele>961.527</ele>
        <time>2016-09-04T10:25:18Z</time>
      </trkpt>
      <trkpt lat="45.31036" lon="5.89095">
        <ele>961.378</ele>
        <time>2016-09-04T10:25:21Z</time>
      </trkpt>
      <trkpt lat="45.31036" lon="5.89095">
        <ele>961.731</ele>
        <time>2016-09-04T10:25:24Z</time>
      </trkpt>
      <trkpt lat="45.31036" lon="5.89095">
        <ele>961.703</ele>
        <time>2016-09-04T10:25:27Z</time>
      </trkpt>
      <trkpt lat="45.31036" lon="5.89095">
        <ele>961.456</ele>
        <time>2016-09-04T10:25:30Z</time>
      </trkpt>
      <trkpt lat="45.31036" lon="5.89095">
        <ele>961.381</ele>
        <time>2016-09-04T10:25:33Z</time>
      </trkpt>
      <trkpt lat="45.31036" lon="5.89095">
        <ele>961.692</ele>
        <time>2016-09-04T10:25:36Z</time>
      </trkpt>
      <trkpt lat="45.31036" lon="5.89095">
        <ele>961.528</ele>
        <time>2016-09-04T10:25:39Z</time>
      </trkpt>
      <trkpt lat="45.31036" lon="5.89095">
        <ele>961.305</ele>
        <time>2016-09-04T10:25:42Z</time>
      </trkpt>
      <trkpt lat="45.31036" lon="5.89095">
        <ele>961.526</ele>
        <time>2016-09-04T10:25:45Z</time>
      </trkpt>
      <trkpt lat="45.31036" lon="5.89095">
        <ele>961.303</ele>
        <time>2016-09-04T10:25:48Z</time>
      </trkpt>
      <trkpt lat="45.31036" lon="5.89095">
        <ele>961.648</ele>
        <time>2016-09-04T10:25:51Z</time>
      </trkpt>
      <trkpt lat="45.31036" lon="5.89095">
        <ele>961.126</ele>
        <time>2016-09-04T10:25:54Z</time>
      </trkpt>
      <trkpt lat="45.31036" lon="5.89095">
        <ele>961.293</ele>
        <time>2016-09-04T10:25:57Z</time>
      </trkpt>
      <trkpt lat="45.31036" lon="5.89095">
        <ele>961.292</ele>
        <time>2016-09-04T10:26:00Z</time>
      </trkpt>
      <trkpt lat="45.31036" lon="5.89095">
        <ele>961.603</ele>
        <time>2016-09-04T10:26:03Z</time>
      </trkpt>
      <trkpt lat="45.31036" lon="5.89095">
        <ele>961.676</ele>
        <time>2016-09-04T10:26:06Z</time>
      </trkpt>
      <trkpt lat="45.31036" lon="5.89095">
        <ele>960.985</ele>
        <time>2016-09-04T10:26:09Z</time>
      </trkpt>
      <trkpt lat="45.31036" lon="5.89095">
        <ele>960.877</ele>
        <time>2016-09-04T10:26:12Z</time>
      </trkpt>
      <trkpt lat="45.31036" lon="5.89095">
        <ele>961.32</ele>
        <time>2016-09-04T10:26:15Z</time>
      </trkpt>
      <trkpt lat="45.31036" lon="5.89095">
        <ele>961.172</ele>
        <time>2016-09-04T10:26:18Z</time>
      </trkpt>
      <trkpt lat="45.31036" lon="5.89095">
        <ele>960.965</ele>
        <time>2016-09-04T10:26:21Z</time>
      </trkpt>
      <trkpt lat="45.31036" lon="5.89095">
        <ele>961.467</ele>
        <time>2016-09-04T10:26:24Z</time>
      </trkpt>
      <trkpt lat="45.31036" lon="5.89095">
        <ele>961.442</ele>
        <time>2016-09-04T10:26:27Z</time>
      </trkpt>
      <trkpt lat="45.31036" lon="5.89095">
        <ele>961.277</ele>
        <time>2016-09-04T10:26:30Z</time>
      </trkpt>
      <trkpt lat="45.31036" lon="5.89095">
        <ele>961.195</ele>
        <time>2016-09-04T10:26:33Z</time>
      </trkpt>
      <trkpt lat="45.31036" lon="5.89095">
        <ele>961.482</ele>
        <time>2016-09-04T10:26:36Z</time>
      </trkpt>
      <trkpt lat="45.31036" lon="5.89095">
        <ele>961.058</ele>
        <time>2016-09-04T10:26:39Z</time>
      </trkpt>
      <trkpt lat="45.31035" lon="5.89095">
        <ele>961.496</ele>
        <time>2016-09-04T10:26:42Z</time>
      </trkpt>
      <trkpt lat="45.31033" lon="5.89097">
        <ele>961.172</ele>
        <time>2016-09-04T10:26:45Z</time>
      </trkpt>
      <trkpt lat="45.31026" lon="5.89103">
        <ele>954.188</ele>
        <time>2016-09-04T10:26:48Z</time>
      </trkpt>
      <trkpt lat="45.30995" lon="5.89128">
        <ele>943.828</ele>
        <time>2016-09-04T10:26:51Z</time>
      </trkpt>
      <trkpt lat="45.30976" lon="5.89144">
        <ele>945.755</ele>
        <time>2016-09-04T10:26:54Z</time>
      </trkpt>
      <trkpt lat="45.30956" lon="5.89159">
        <ele>933.799</ele>
        <time>2016-09-04T10:26:57Z</time>
      </trkpt>
      <trkpt lat="45.30935" lon="5.89188">
        <ele>930.577</ele>
        <time>2016-09-04T10:27:00Z</time>
      </trkpt>
      <trkpt lat="45.30918" lon="5.89214">
        <ele>926.7</ele>
        <time>2016-09-04T10:27:03Z</time>
      </trkpt>
      <trkpt lat="45.30897" lon="5.89232">
        <ele>923.49</ele>
        <time>2016-09-04T10:27:06Z</time>
      </trkpt>
      <trkpt lat="45.30873" lon="5.89227">
        <ele>923.758</ele>
        <time>2016-09-04T10:27:09Z</time>
      </trkpt>
      <trkpt lat="45.30851" lon="5.89211">
        <ele>918.682</ele>
        <time>2016-09-04T10:27:12Z</time>
      </trkpt>
      <trkpt lat="45.3083" lon="5.89177">
        <ele>918.992</ele>
        <time>2016-09-04T10:27:15Z</time>
      </trkpt>
      <trkpt lat="45.30819" lon="5.89155">
        <ele>916.39</ele>
        <time>2016-09-04T10:27:18Z</time>
      </trkpt>
      <trkpt lat="45.30798" lon="5.89134">
        <ele>904.085</ele>
        <time>2016-09-04T10:27:21Z</time>
      </trkpt>
      <trkpt lat="45.30776" lon="5.89105">
        <ele>906.43</ele>
        <time>2016-09-04T10:27:24Z</time>
      </trkpt>
      <trkpt lat="45.30757" lon="5.89074">
        <ele>905.59</ele>
        <time>2016-09-04T10:27:27Z</time>
      </trkpt>
      <trkpt lat="45.30733" lon="5.89054">
        <ele>908.505</ele>
        <time>2016-09-04T10:27:30Z</time>
      </trkpt>
      <trkpt lat="45.30709" lon="5.89045">
        <ele>905.382</ele>
        <time>2016-09-04T10:27:33Z</time>
      </trkpt>
      <trkpt lat="45.30684" lon="5.89023">
        <ele>903.869</ele>
        <time>2016-09-04T10:27:36Z</time>
      </trkpt>
      <trkpt lat="45.30658" lon="5.89009">
        <ele>901.147</ele>
        <time>2016-09-04T10:27:39Z</time>
      </trkpt>
      <trkpt lat="45.30636" lon="5.88983">
        <ele>897.961</ele>
        <time>2016-09-04T10:27:42Z</time>
      </trkpt>
      <trkpt lat="45.3061" lon="5.88964">
        <ele>895.481</ele>
        <time>2016-09-04T10:27:45Z</time>
      </trkpt>
      <trkpt lat="45.30579" lon="5.88955">
        <ele>887.506</ele>
        <time>2016-09-04T10:27:48Z</time>
      </trkpt>
      <trkpt lat="45.30549" lon="5.88945">
        <ele>884.471</ele>
        <time>2016-09-04T10:27:51Z</time>
      </trkpt>
      <trkpt lat="45.30523" lon="5.88936">
        <ele>880.896</ele>
        <time>2016-09-04T10:27:54Z</time>
      </trkpt>
      <trkpt lat="45.30501" lon="5.88964">
        <ele>870.968</ele>
        <time>2016-09-04T10:27:57Z</time>
      </trkpt>
      <trkpt lat="45.30508" lon="5.89005">
        <ele>870.178</ele>
        <time>2016-09-04T10:28:00Z</time>
      </trkpt>
      <trkpt lat="45.3053" lon="5.89027">
        <ele>862.903</ele>
        <time>2016-09-04T10:28:03Z</time>
      </trkpt>
      <trkpt lat="45.30556" lon="5.89026">
        <ele>860.193</ele>
        <time>2016-09-04T10:28:06Z</time>
      </trkpt>
      <trkpt lat="45.3058" lon="5.89026">
        <ele>855.717</ele>
        <time>2016-09-04T10:28:09Z</time>
      </trkpt>
      <trkpt lat="45.30606" lon="5.89036">
        <ele>849.922</ele>
        <time>2016-09-04T10:28:12Z</time>
      </trkpt>
      <trkpt lat="45.30631" lon="5.89041">
        <ele>845.56</ele>
        <time>2016-09-04T10:28:15Z</time>
      </trkpt>
      <trkpt lat="45.30652" lon="5.89062">
        <ele>836.99</ele>
        <time>2016-09-04T10:28:18Z</time>
      </trkpt>
      <trkpt lat="45.30676" lon="5.89089">
        <ele>833.848</ele>
        <time>2016-09-04T10:28:21Z</time>
      </trkpt>
      <trkpt lat="45.30697" lon="5.89109">
        <ele>830.355</ele>
        <time>2016-09-04T10:28:24Z</time>
      </trkpt>
      <trkpt lat="45.30712" lon="5.89139">
        <ele>824.744</ele>
        <time>2016-09-04T10:28:27Z</time>
      </trkpt>
      <trkpt lat="45.3073" lon="5.89167">
        <ele>822.418</ele>
        <time>2016-09-04T10:28:30Z</time>
      </trkpt>
      <trkpt lat="45.30745" lon="5.89198">
        <ele>823.239</ele>
        <time>2016-09-04T10:28:33Z</time>
      </trkpt>
      <trkpt lat="45.30749" lon="5.89224">
        <ele>824.429</ele>
        <time>2016-09-04T10:28:36Z</time>
      </trkpt>
      <trkpt lat="45.30753" lon="5.89249">
        <ele>816.034</ele>
        <time>2016-09-04T10:28:39Z</time>
      </trkpt>
      <trkpt lat="45.30754" lon="5.89285">
        <ele>813.649</ele>
        <time>2016-09-04T10:28:42Z</time>
      </trkpt>
      <trkpt lat="45.30765" lon="5.89315">
        <ele>805.683</ele>
        <time>2016-09-04T10:28:45Z</time>
      </trkpt>
      <trkpt lat="45.30772" lon="5.89352">
        <ele>799.239</ele>
        <time>2016-09-04T10:28:48Z</time>
      </trkpt>
      <trkpt lat="45.30773" lon="5.89387">
        <ele>791.395</ele>
        <time>2016-09-04T10:28:51Z</time>
      </trkpt>
      <trkpt lat="45.30773" lon="5.89428">
        <ele>787.126</ele>
        <time>2016-09-04T10:28:54Z</time>
      </trkpt>
      <trkpt lat="45.30774" lon="5.89465">
        <ele>788.223</ele>
        <time>2016-09-04T10:28:57Z</time>
      </trkpt>
      <trkpt lat="45.30776" lon="5.89498">
        <ele>784.448</ele>
        <time>2016-09-04T10:29:00Z</time>
      </trkpt>
      <trkpt lat="45.30771" lon="5.89531">
        <ele>779.879</ele>
        <time>2016-09-04T10:29:03Z</time>
      </trkpt>
      <trkpt lat="45.30769" lon="5.89563">
        <ele>776.348</ele>
        <time>2016-09-04T10:29:06Z</time>
      </trkpt>
      <trkpt lat="45.30774" lon="5.89591">
        <ele>772.175</ele>
        <time>2016-09-04T10:29:09Z</time>
      </trkpt>
      <trkpt lat="45.30784" lon="5.8962">
        <ele>772.004</ele>
        <time>2016-09-04T10:29:12Z</time>
      </trkpt>
      <trkpt lat="45.30791" lon="5.8965">
        <ele>773.186</ele>
        <time>2016-09-04T10:29:15Z</time>
      </trkpt>
      <trkpt lat="45.30795" lon="5.89679">
        <ele>773.276</ele>
        <time>2016-09-04T10:29:18Z</time>
      </trkpt>
      <trkpt lat="45.30802" lon="5.89705">
        <ele>774.561</ele>
        <time>2016-09-04T10:29:21Z</time>
      </trkpt>
      <trkpt lat="45.30804" lon="5.89723">
        <ele>774.117</ele>
        <time>2016-09-04T10:29:24Z</time>
      </trkpt>
      <trkpt lat="45.30798" lon="5.89751">
        <ele>767.065</ele>
        <time>2016-09-04T10:29:27Z</time>
      </trkpt>
      <trkpt lat="45.30769" lon="5.89754">
        <ele>770.852</ele>
        <time>2016-09-04T10:29:30Z</time>
      </trkpt>
      <trkpt lat="45.30749" lon="5.89727">
        <ele>773.166</ele>
        <time>2016-09-04T10:29:33Z</time>
      </trkpt>
      <trkpt lat="45.30737" lon="5.89691">
        <ele>774.697</ele>
        <time>2016-09-04T10:29:36Z</time>
      </trkpt>
      <trkpt lat="45.30737" lon="5.89644">
        <ele>771.315</ele>
        <time>2016-09-04T10:29:39Z</time>
      </trkpt>
      <trkpt lat="45.30741" lon="5.89605">
        <ele>770.108</ele>
        <time>2016-09-04T10:29:42Z</time>
      </trkpt>
      <trkpt lat="45.3074" lon="5.89567">
        <ele>763.74</ele>
        <time>2016-09-04T10:29:45Z</time>
      </trkpt>
      <trkpt lat="45.30736" lon="5.89516">
        <ele>763.335</ele>
        <time>2016-09-04T10:29:48Z</time>
      </trkpt>
      <trkpt lat="45.30732" lon="5.8948">
        <ele>760.141</ele>
        <time>2016-09-04T10:29:51Z</time>
      </trkpt>
      <trkpt lat="45.30715" lon="5.8944">
        <ele>746.812</ele>
        <time>2016-09-04T10:29:54Z</time>
      </trkpt>
      <trkpt lat="45.30695" lon="5.894">
        <ele>743.13</ele>
        <time>2016-09-04T10:29:57Z</time>
      </trkpt>
      <trkpt lat="45.30678" lon="5.89367">
        <ele>737.979</ele>
        <time>2016-09-04T10:30:00Z</time>
      </trkpt>
      <trkpt lat="45.3065" lon="5.89334">
        <ele>727.086</ele>
        <time>2016-09-04T10:30:03Z</time>
      </trkpt>
      <trkpt lat="45.3063" lon="5.89306">
        <ele>733.859</ele>
        <time>2016-09-04T10:30:06Z</time>
      </trkpt>
      <trkpt lat="45.30617" lon="5.89292">
        <ele>735.076</ele>
        <time>2016-09-04T10:30:09Z</time>
      </trkpt>
      <trkpt lat="45.30597" lon="5.89268">
        <ele>734.126</ele>
        <time>2016-09-04T10:30:12Z</time>
      </trkpt>
      <trkpt lat="45.30588" lon="5.89236">
        <ele>732.954</ele>
        <time>2016-09-04T10:30:15Z</time>
      </trkpt>
      <trkpt lat="45.30575" lon="5.89206">
        <ele>725.314</ele>
        <time>2016-09-04T10:30:18Z</time>
      </trkpt>
      <trkpt lat="45.30552" lon="5.89179">
        <ele>722.231</ele>
        <time>2016-09-04T10:30:21Z</time>
      </trkpt>
      <trkpt lat="45.30531" lon="5.89163">
        <ele>721.799</ele>
        <time>2016-09-04T10:30:24Z</time>
      </trkpt>
      <trkpt lat="45.30513" lon="5.89142">
        <ele>720.376</ele>
        <time>2016-09-04T10:30:27Z</time>
      </trkpt>
      <trkpt lat="45.30491" lon="5.89119">
        <ele>715.452</ele>
        <time>2016-09-04T10:30:30Z</time>
      </trkpt>
      <trkpt lat="45.30467" lon="5.89096">
        <ele>712.505</ele>
        <time>2016-09-04T10:30:33Z</time>
      </trkpt>
      <trkpt lat="45.30449" lon="5.89071">
        <ele>704.355</ele>
        <time>2016-09-04T10:30:36Z</time>
      </trkpt>
      <trkpt lat="45.30425" lon="5.89044">
        <ele>698.674</ele>
        <time>2016-09-04T10:30:39Z</time>
      </trkpt>
      <trkpt lat="45.30399" lon="5.89029">
        <ele>696.411</ele>
        <time>2016-09-04T10:30:42Z</time>
      </trkpt>
      <trkpt lat="45.30373" lon="5.89019">
        <ele>691.687</ele>
        <time>2016-09-04T10:30:45Z</time>
      </trkpt>
      <trkpt lat="45.3035" lon="5.89">
        <ele>688.472</ele>
        <time>2016-09-04T10:30:48Z</time>
      </trkpt>
      <trkpt lat="45.30326" lon="5.8898">
        <ele>684.318</ele>
        <time>2016-09-04T10:30:51Z</time>
      </trkpt>
      <trkpt lat="45.30301" lon="5.88972">
        <ele>684.075</ele>
        <time>2016-09-04T10:30:54Z</time>
      </trkpt>
      <trkpt lat="45.30285" lon="5.88995">
        <ele>682.452</ele>
        <time>2016-09-04T10:30:57Z</time>
      </trkpt>
      <trkpt lat="45.30303" lon="5.89029">
        <ele>684.167</ele>
        <time>2016-09-04T10:31:00Z</time>
      </trkpt>
      <trkpt lat="45.30328" lon="5.89035">
        <ele>682.897</ele>
        <time>2016-09-04T10:31:03Z</time>
      </trkpt>
      <trkpt lat="45.30352" lon="5.89037">
        <ele>682.175</ele>
        <time>2016-09-04T10:31:06Z</time>
      </trkpt>
      <trkpt lat="45.30371" lon="5.89048">
        <ele>678.217</ele>
        <time>2016-09-04T10:31:09Z</time>
      </trkpt>
      <trkpt lat="45.30391" lon="5.89069">
        <ele>672.708</ele>
        <time>2016-09-04T10:31:12Z</time>
      </trkpt>
      <trkpt lat="45.30414" lon="5.8909">
        <ele>666.362</ele>
        <time>2016-09-04T10:31:15Z</time>
      </trkpt>
      <trkpt lat="45.30431" lon="5.89119">
        <ele>660.043</ele>
        <time>2016-09-04T10:31:18Z</time>
      </trkpt>
      <trkpt lat="45.30446" lon="5.8915">
        <ele>657.348</ele>
        <time>2016-09-04T10:31:21Z</time>
      </trkpt>
      <trkpt lat="45.3046" lon="5.89179">
        <ele>650.325</ele>
        <time>2016-09-04T10:31:24Z</time>
      </trkpt>
      <trkpt lat="45.30473" lon="5.89215">
        <ele>646.007</ele>
        <time>2016-09-04T10:31:27Z</time>
      </trkpt>
      <trkpt lat="45.30485" lon="5.8925">
        <ele>646.126</ele>
        <time>2016-09-04T10:31:30Z</time>
      </trkpt>
      <trkpt lat="45.30497" lon="5.89279">
        <ele>642.681</ele>
        <time>2016-09-04T10:31:33Z</time>
      </trkpt>
      <trkpt lat="45.30508" lon="5.8931">
        <ele>639.267</ele>
        <time>2016-09-04T10:31:36Z</time>
      </trkpt>
      <trkpt lat="45.30519" lon="5.89339">
        <ele>636.229</ele>
        <time>2016-09-04T10:31:39Z</time>
      </trkpt>
      <trkpt lat="45.30533" lon="5.89368">
        <ele>633.807</ele>
        <time>2016-09-04T10:31:42Z</time>
      </trkpt>
      <trkpt lat="45.30548" lon="5.89402">
        <ele>632.78</ele>
        <time>2016-09-04T10:31:45Z</time>
      </trkpt>
      <trkpt lat="45.3056" lon="5.89436">
        <ele>634.672</ele>
        <time>2016-09-04T10:31:48Z</time>
      </trkpt>
      <trkpt lat="45.30568" lon="5.89463">
        <ele>636.365</ele>
        <time>2016-09-04T10:31:51Z</time>
      </trkpt>
      <trkpt lat="45.30579" lon="5.89484">
        <ele>633.941</ele>
        <time>2016-09-04T10:31:54Z</time>
      </trkpt>
      <trkpt lat="45.30576" lon="5.89507">
        <ele>627.609</ele>
        <time>2016-09-04T10:31:57Z</time>
      </trkpt>
      <trkpt lat="45.30541" lon="5.89503">
        <ele>621.578</ele>
        <time>2016-09-04T10:32:00Z</time>
      </trkpt>
      <trkpt lat="45.30528" lon="5.89473">
        <ele>622.705</ele>
        <time>2016-09-04T10:32:03Z</time>
      </trkpt>
      <trkpt lat="45.30514" lon="5.89435">
        <ele>615.648</ele>
        <time>2016-09-04T10:32:06Z</time>
      </trkpt>
      <trkpt lat="45.3049" lon="5.89416">
        <ele>611.241</ele>
        <time>2016-09-04T10:32:09Z</time>
      </trkpt>
      <trkpt lat="45.30479" lon="5.89459">
        <ele>608.909</ele>
        <time>2016-09-04T10:32:12Z</time>
      </trkpt>
      <trkpt lat="45.30495" lon="5.89487">
        <ele>607.906</ele>
        <time>2016-09-04T10:32:15Z</time>
      </trkpt>
      <trkpt lat="45.30519" lon="5.89505">
        <ele>609.742</ele>
        <time>2016-09-04T10:32:18Z</time>
      </trkpt>
      <trkpt lat="45.30543" lon="5.89521">
        <ele>613.523</ele>
        <time>2016-09-04T10:32:21Z</time>
      </trkpt>
      <trkpt lat="45.30562" lon="5.8954">
        <ele>616.129</ele>
        <time>2016-09-04T10:32:24Z</time>
      </trkpt>
      <trkpt lat="45.30572" lon="5.89561">
        <ele>615.431</ele>
        <time>2016-09-04T10:32:27Z</time>
      </trkpt>
      <trkpt lat="45.30564" lon="5.89587">
        <ele>608.613</ele>
        <time>2016-09-04T10:32:30Z</time>
      </trkpt>
      <trkpt lat="45.30532" lon="5.89575">
        <ele>605.468</ele>
        <time>2016-09-04T10:32:33Z</time>
      </trkpt>
      <trkpt lat="45.3052" lon="5.89535">
        <ele>603.567</ele>
        <time>2016-09-04T10:32:36Z</time>
      </trkpt>
      <trkpt lat="45.30517" lon="5.89493">
        <ele>600.757</ele>
        <time>2016-09-04T10:32:39Z</time>
      </trkpt>
      <trkpt lat="45.30508" lon="5.89453">
        <ele>601.802</ele>
        <time>2016-09-04T10:32:42Z</time>
      </trkpt>
      <trkpt lat="45.30483" lon="5.89442">
        <ele>602.016</ele>
        <time>2016-09-04T10:32:45Z</time>
      </trkpt>
      <trkpt lat="45.30463" lon="5.89475">
        <ele>590.513</ele>
        <time>2016-09-04T10:32:48Z</time>
      </trkpt>
      <trkpt lat="45.30465" lon="5.89506">
        <ele>591.107</ele>
        <time>2016-09-04T10:32:51Z</time>
      </trkpt>
      <trkpt lat="45.30476" lon="5.89529">
        <ele>586.619</ele>
        <time>2016-09-04T10:32:54Z</time>
      </trkpt>
      <trkpt lat="45.30492" lon="5.89557">
        <ele>582.09</ele>
        <time>2016-09-04T10:32:57Z</time>
      </trkpt>
      <trkpt lat="45.3051" lon="5.89578">
        <ele>579.425</ele>
        <time>2016-09-04T10:33:00Z</time>
      </trkpt>
      <trkpt lat="45.30526" lon="5.89602">
        <ele>577.43</ele>
        <time>2016-09-04T10:33:03Z</time>
      </trkpt>
      <trkpt lat="45.30547" lon="5.89623">
        <ele>579.469</ele>
        <time>2016-09-04T10:33:06Z</time>
      </trkpt>
      <trkpt lat="45.30566" lon="5.89643">
        <ele>577.647</ele>
        <time>2016-09-04T10:33:09Z</time>
      </trkpt>
      <trkpt lat="45.30581" lon="5.89671">
        <ele>578.68</ele>
        <time>2016-09-04T10:33:12Z</time>
      </trkpt>
      <trkpt lat="45.30592" lon="5.897">
        <ele>571.872</ele>
        <time>2016-09-04T10:33:15Z</time>
      </trkpt>
      <trkpt lat="45.3061" lon="5.89735">
        <ele>572.379</ele>
        <time>2016-09-04T10:33:18Z</time>
      </trkpt>
      <trkpt lat="45.30621" lon="5.89755">
        <ele>573.598</ele>
        <time>2016-09-04T10:33:21Z</time>
      </trkpt>
      <trkpt lat="45.30629" lon="5.89778">
        <ele>566.028</ele>
        <time>2016-09-04T10:33:24Z</time>
      </trkpt>
      <trkpt lat="45.30639" lon="5.89805">
        <ele>563.366</ele>
        <time>2016-09-04T10:33:27Z</time>
      </trkpt>
      <trkpt lat="45.30648" lon="5.89832">
        <ele>557.862</ele>
        <time>2016-09-04T10:33:30Z</time>
      </trkpt>
      <trkpt lat="45.30663" lon="5.89869">
        <ele>558.8</ele>
        <time>2016-09-04T10:33:33Z</time>
      </trkpt>
      <trkpt lat="45.30675" lon="5.89896">
        <ele>561.165</ele>
        <time>2016-09-04T10:33:36Z</time>
      </trkpt>
      <trkpt lat="45.3068" lon="5.89922">
        <ele>559.699</ele>
        <time>2016-09-04T10:33:39Z</time>
      </trkpt>
      <trkpt lat="45.30667" lon="5.89942">
        <ele>559.704</ele>
        <time>2016-09-04T10:33:42Z</time>
      </trkpt>
      <trkpt lat="45.30637" lon="5.89937">
        <ele>557.698</ele>
        <time>2016-09-04T10:33:45Z</time>
      </trkpt>
      <trkpt lat="45.30617" lon="5.89905">
        <ele>553.541</ele>
        <time>2016-09-04T10:33:48Z</time>
      </trkpt>
      <trkpt lat="45.30608" lon="5.89866">
        <ele>548.292</ele>
        <time>2016-09-04T10:33:51Z</time>
      </trkpt>
      <trkpt lat="45.30589" lon="5.8983">
        <ele>547.735</ele>
        <time>2016-09-04T10:33:54Z</time>
      </trkpt>
      <trkpt lat="45.30568" lon="5.89811">
        <ele>548.03</ele>
        <time>2016-09-04T10:33:57Z</time>
      </trkpt>
      <trkpt lat="45.30547" lon="5.89795">
        <ele>538.854</ele>
        <time>2016-09-04T10:34:00Z</time>
      </trkpt>
      <trkpt lat="45.30518" lon="5.89787">
        <ele>539.835</ele>
        <time>2016-09-04T10:34:03Z</time>
      </trkpt>
      <trkpt lat="45.30495" lon="5.89782">
        <ele>536.609</ele>
        <time>2016-09-04T10:34:06Z</time>
      </trkpt>
      <trkpt lat="45.30466" lon="5.89775">
        <ele>533.961</ele>
        <time>2016-09-04T10:34:09Z</time>
      </trkpt>
      <trkpt lat="45.30438" lon="5.89771">
        <ele>528.503</ele>
        <time>2016-09-04T10:34:12Z</time>
      </trkpt>
      <trkpt lat="45.30409" lon="5.8977">
        <ele>522.251</ele>
        <time>2016-09-04T10:34:15Z</time>
      </trkpt>
      <trkpt lat="45.30381" lon="5.89778">
        <ele>516.99</ele>
        <time>2016-09-04T10:34:18Z</time>
      </trkpt>
      <trkpt lat="45.30368" lon="5.8981">
        <ele>510.469</ele>
        <time>2016-09-04T10:34:21Z</time>
      </trkpt>
      <trkpt lat="45.30376" lon="5.89848">
        <ele>507.006</ele>
        <time>2016-09-04T10:34:24Z</time>
      </trkpt>
      <trkpt lat="45.30389" lon="5.89875">
        <ele>503.473</ele>
        <time>2016-09-04T10:34:27Z</time>
      </trkpt>
      <trkpt lat="45.30406" lon="5.89897">
        <ele>496.353</ele>
        <time>2016-09-04T10:34:30Z</time>
      </trkpt>
      <trkpt lat="45.30423" lon="5.89927">
        <ele>491.233</ele>
        <time>2016-09-04T10:34:33Z</time>
      </trkpt>
      <trkpt lat="45.3044" lon="5.89953">
        <ele>484.718</ele>
        <time>2016-09-04T10:34:36Z</time>
      </trkpt>
      <trkpt lat="45.30458" lon="5.89983">
        <ele>480.586</ele>
        <time>2016-09-04T10:34:39Z</time>
      </trkpt>
      <trkpt lat="45.30477" lon="5.90011">
        <ele>478.753</ele>
        <time>2016-09-04T10:34:42Z</time>
      </trkpt>
      <trkpt lat="45.30495" lon="5.90036">
        <ele>478.646</ele>
        <time>2016-09-04T10:34:45Z</time>
      </trkpt>
      <trkpt lat="45.30513" lon="5.90059">
        <ele>475.775</ele>
        <time>2016-09-04T10:34:48Z</time>
      </trkpt>
      <trkpt lat="45.30535" lon="5.90085">
        <ele>476.863</ele>
        <time>2016-09-04T10:34:51Z</time>
      </trkpt>
      <trkpt lat="45.30549" lon="5.90106">
        <ele>481.282</ele>
        <time>2016-09-04T10:34:54Z</time>
      </trkpt>
      <trkpt lat="45.30564" lon="5.90124">
        <ele>480.077</ele>
        <time>2016-09-04T10:34:57Z</time>
      </trkpt>
      <trkpt lat="45.30563" lon="5.90151">
        <ele>474.964</ele>
        <time>2016-09-04T10:35:00Z</time>
      </trkpt>
      <trkpt lat="45.30532" lon="5.90139">
        <ele>471.091</ele>
        <time>2016-09-04T10:35:03Z</time>
      </trkpt>
      <trkpt lat="45.30526" lon="5.90095">
        <ele>474.408</ele>
        <time>2016-09-04T10:35:06Z</time>
      </trkpt>
      <trkpt lat="45.3053" lon="5.90055">
        <ele>475.681</ele>
        <time>2016-09-04T10:35:09Z</time>
      </trkpt>
      <trkpt lat="45.30527" lon="5.90016">
        <ele>473.686</ele>
        <time>2016-09-04T10:35:12Z</time>
      </trkpt>
      <trkpt lat="45.30499" lon="5.90016">
        <ele>470.401</ele>
        <time>2016-09-04T10:35:15Z</time>
      </trkpt>
      <trkpt lat="45.30504" lon="5.90051">
        <ele>467.665</ele>
        <time>2016-09-04T10:35:18Z</time>
      </trkpt>
      <trkpt lat="45.30531" lon="5.90068">
        <ele>469.421</ele>
        <time>2016-09-04T10:35:21Z</time>
      </trkpt>
      <trkpt lat="45.30553" lon="5.90079">
        <ele>473.56</ele>
        <time>2016-09-04T10:35:24Z</time>
      </trkpt>
      <trkpt lat="45.30573" lon="5.9009">
        <ele>470.242</ele>
        <time>2016-09-04T10:35:27Z</time>
      </trkpt>
      <trkpt lat="45.30589" lon="5.90113">
        <ele>467.708</ele>
        <time>2016-09-04T10:35:30Z</time>
      </trkpt>
      <trkpt lat="45.30606" lon="5.90137">
        <ele>467.897</ele>
        <time>2016-09-04T10:35:33Z</time>
      </trkpt>
      <trkpt lat="45.3062" lon="5.90156">
        <ele>468.306</ele>
        <time>2016-09-04T10:35:36Z</time>
      </trkpt>
      <trkpt lat="45.30635" lon="5.90172">
        <ele>462.968</ele>
        <time>2016-09-04T10:35:39Z</time>
      </trkpt>
      <trkpt lat="45.30646" lon="5.902">
        <ele>461.949</ele>
        <time>2016-09-04T10:35:42Z</time>
      </trkpt>
      <trkpt lat="45.30652" lon="5.90225">
        <ele>460.098</ele>
        <time>2016-09-04T10:35:45Z</time>
      </trkpt>
      <trkpt lat="45.3064" lon="5.90252">
        <ele>457.964</ele>
        <time>2016-09-04T10:35:48Z</time>
      </trkpt>
      <trkpt lat="45.30614" lon="5.90252">
        <ele>454.836</ele>
        <time>2016-09-04T10:35:51Z</time>
      </trkpt>
      <trkpt lat="45.30594" lon="5.90212">
        <ele>451.857</ele>
        <time>2016-09-04T10:35:54Z</time>
      </trkpt>
      <trkpt lat="45.30591" lon="5.90168">
        <ele>451.379</ele>
        <time>2016-09-04T10:35:57Z</time>
      </trkpt>
      <trkpt lat="45.30589" lon="5.90127">
        <ele>450.9</ele>
        <time>2016-09-04T10:36:00Z</time>
      </trkpt>
      <trkpt lat="45.30577" lon="5.90088">
        <ele>445.104</ele>
        <time>2016-09-04T10:36:03Z</time>
      </trkpt>
      <trkpt lat="45.30556" lon="5.90056">
        <ele>447.869</ele>
        <time>2016-09-04T10:36:06Z</time>
      </trkpt>
      <trkpt lat="45.30538" lon="5.90036">
        <ele>448.959</ele>
        <time>2016-09-04T10:36:09Z</time>
      </trkpt>
      <trkpt lat="45.3052" lon="5.90009">
        <ele>445.465</ele>
        <time>2016-09-04T10:36:12Z</time>
      </trkpt>
      <trkpt lat="45.30498" lon="5.90006">
        <ele>441.593</ele>
        <time>2016-09-04T10:36:15Z</time>
      </trkpt>
      <trkpt lat="45.30504" lon="5.90049">
        <ele>439.035</ele>
        <time>2016-09-04T10:36:18Z</time>
      </trkpt>
      <trkpt lat="45.30531" lon="5.90061">
        <ele>442.12</ele>
        <time>2016-09-04T10:36:21Z</time>
      </trkpt>
      <trkpt lat="45.30553" lon="5.90068">
        <ele>441.395</ele>
        <time>2016-09-04T10:36:24Z</time>
      </trkpt>
      <trkpt lat="45.30571" lon="5.90086">
        <ele>439.644</ele>
        <time>2016-09-04T10:36:27Z</time>
      </trkpt>
      <trkpt lat="45.30584" lon="5.90113">
        <ele>438.796</ele>
        <time>2016-09-04T10:36:30Z</time>
      </trkpt>
      <trkpt lat="45.30595" lon="5.90141">
        <ele>438.467</ele>
        <time>2016-09-04T10:36:33Z</time>
      </trkpt>
      <trkpt lat="45.30606" lon="5.90164">
        <ele>438.013</ele>
        <time>2016-09-04T10:36:36Z</time>
      </trkpt>
      <trkpt lat="45.30616" lon="5.90188">
        <ele>435.767</ele>
        <time>2016-09-04T10:36:39Z</time>
      </trkpt>
      <trkpt lat="45.30617" lon="5.90217">
        <ele>434.187</ele>
        <time>2016-09-04T10:36:42Z</time>
      </trkpt>
      <trkpt lat="45.30592" lon="5.90234">
        <ele>425.853</ele>
        <time>2016-09-04T10:36:45Z</time>
      </trkpt>
      <trkpt lat="45.30563" lon="5.90219">
        <ele>424.281</ele>
        <time>2016-09-04T10:36:48Z</time>
      </trkpt>
      <trkpt lat="45.30542" lon="5.90189">
        <ele>419.541</ele>
        <time>2016-09-04T10:36:51Z</time>
      </trkpt>
      <trkpt lat="45.3052" lon="5.9015">
        <ele>414.736</ele>
        <time>2016-09-04T10:36:54Z</time>
      </trkpt>
      <trkpt lat="45.3049" lon="5.90135">
        <ele>416.594</ele>
        <time>2016-09-04T10:36:57Z</time>
      </trkpt>
      <trkpt lat="45.30463" lon="5.90128">
        <ele>418.593</ele>
        <time>2016-09-04T10:37:00Z</time>
      </trkpt>
      <trkpt lat="45.30437" lon="5.90113">
        <ele>413.628</ele>
        <time>2016-09-04T10:37:03Z</time>
      </trkpt>
      <trkpt lat="45.30408" lon="5.90097">
        <ele>410.249</ele>
        <time>2016-09-04T10:37:06Z</time>
      </trkpt>
      <trkpt lat="45.3038" lon="5.90084">
        <ele>406.87</ele>
        <time>2016-09-04T10:37:09Z</time>
      </trkpt>
      <trkpt lat="45.30351" lon="5.90071">
        <ele>403.361</ele>
        <time>2016-09-04T10:37:12Z</time>
      </trkpt>
      <trkpt lat="45.30324" lon="5.90053">
        <ele>398.565</ele>
        <time>2016-09-04T10:37:15Z</time>
      </trkpt>
      <trkpt lat="45.30294" lon="5.90036">
        <ele>390.726</ele>
        <time>2016-09-04T10:37:18Z</time>
      </trkpt>
      <trkpt lat="45.30263" lon="5.9003">
        <ele>388.758</ele>
        <time>2016-09-04T10:37:21Z</time>
      </trkpt>
      <trkpt lat="45.30236" lon="5.90029">
        <ele>381.134</ele>
        <time>2016-09-04T10:37:24Z</time>
      </trkpt>
      <trkpt lat="45.30205" lon="5.90035">
        <ele>374.846</ele>
        <time>2016-09-04T10:37:27Z</time>
      </trkpt>
      <trkpt lat="45.30178" lon="5.90045">
        <ele>370.256</ele>
        <time>2016-09-04T10:37:30Z</time>
      </trkpt>
      <trkpt lat="45.30155" lon="5.90054">
        <ele>368.108</ele>
        <time>2016-09-04T10:37:33Z</time>
      </trkpt>
      <trkpt lat="45.30135" lon="5.90068">
        <ele>361.406</ele>
        <time>2016-09-04T10:37:36Z</time>
      </trkpt>
      <trkpt lat="45.30116" lon="5.90091">
        <ele>357.264</ele>
        <time>2016-09-04T10:37:39Z</time>
      </trkpt>
      <trkpt lat="45.30099" lon="5.90112">
        <ele>352.078</ele>
        <time>2016-09-04T10:37:42Z</time>
      </trkpt>
      <trkpt lat="45.3008" lon="5.90137">
        <ele>348.5</ele>
        <time>2016-09-04T10:37:45Z</time>
      </trkpt>
      <trkpt lat="45.30066" lon="5.90159">
        <ele>342.974</ele>
        <time>2016-09-04T10:37:48Z</time>
      </trkpt>
      <trkpt lat="45.30053" lon="5.90185">
        <ele>336.208</ele>
        <time>2016-09-04T10:37:51Z</time>
      </trkpt>
      <trkpt lat="45.30039" lon="5.90218">
        <ele>333.182</ele>
        <time>2016-09-04T10:37:54Z</time>
      </trkpt>
      <trkpt lat="45.30029" lon="5.90249">
        <ele>329.864</ele>
        <time>2016-09-04T10:37:57Z</time>
      </trkpt>
      <trkpt lat="45.3002" lon="5.90278">
        <ele>324.952</ele>
        <time>2016-09-04T10:38:00Z</time>
      </trkpt>
      <trkpt lat="45.30017" lon="5.90309">
        <ele>315.604</ele>
        <time>2016-09-04T10:38:03Z</time>
      </trkpt>
      <trkpt lat="45.30051" lon="5.90326">
        <ele>304.22</ele>
        <time>2016-09-04T10:38:06Z</time>
      </trkpt>
      <trkpt lat="45.30076" lon="5.90332">
        <ele>303.652</ele>
        <time>2016-09-04T10:38:09Z</time>
      </trkpt>
      <trkpt lat="45.30102" lon="5.90338">
        <ele>296.344</ele>
        <time>2016-09-04T10:38:12Z</time>
      </trkpt>
      <trkpt lat="45.30131" lon="5.90345">
        <ele>290.612</ele>
        <time>2016-09-04T10:38:15Z</time>
      </trkpt>
      <trkpt lat="45.3016" lon="5.90354">
        <ele>287.296</ele>
        <time>2016-09-04T10:38:18Z</time>
      </trkpt>
      <trkpt lat="45.30188" lon="5.90365">
        <ele>287.238</ele>
        <time>2016-09-04T10:38:21Z</time>
      </trkpt>
      <trkpt lat="45.3021" lon="5.9038">
        <ele>284.965</ele>
        <time>2016-09-04T10:38:24Z</time>
      </trkpt>
      <trkpt lat="45.30226" lon="5.90403">
        <ele>278.541</ele>
        <time>2016-09-04T10:38:27Z</time>
      </trkpt>
      <trkpt lat="45.30246" lon="5.90427">
        <ele>277.839</ele>
        <time>2016-09-04T10:38:30Z</time>
      </trkpt>
      <trkpt lat="45.30259" lon="5.9045">
        <ele>272.279</ele>
        <time>2016-09-04T10:38:33Z</time>
      </trkpt>
      <trkpt lat="45.30269" lon="5.90483">
        <ele>265.946</ele>
        <time>2016-09-04T10:38:36Z</time>
      </trkpt>
      <trkpt lat="45.30266" lon="5.9051">
        <ele>262.535</ele>
        <time>2016-09-04T10:38:39Z</time>
      </trkpt>
      <trkpt lat="45.30253" lon="5.90537">
        <ele>257.356</ele>
        <time>2016-09-04T10:38:42Z</time>
      </trkpt>
      <trkpt lat="45.30245" lon="5.9057">
        <ele>256.144</ele>
        <time>2016-09-04T10:38:45Z</time>
      </trkpt>
      <trkpt lat="45.30232" lon="5.90592">
        <ele>253.006</ele>
        <time>2016-09-04T10:38:48Z</time>
      </trkpt>
      <trkpt lat="45.30219" lon="5.90609">
        <ele>252.583</ele>
        <time>2016-09-04T10:38:51Z</time>
      </trkpt>
      <trkpt lat="45.30214" lon="5.90613">
        <ele>252</ele>
        <time>2016-09-04T10:38:54Z</time>
      </trkpt>
      <trkpt lat="45.30216" lon="5.90609">
        <ele>251.384</ele>
        <time>2016-09-04T10:38:57Z</time>
      </trkpt>
      <trkpt lat="45.30216" lon="5.90609">
        <ele>251.336</ele>
        <time>2016-09-04T10:39:00Z</time>
      </trkpt>
      <trkpt lat="45.30216" lon="5.90609">
        <ele>251.294</ele>
        <time>2016-09-04T10:39:03Z</time>
      </trkpt>
      <trkpt lat="45.30216" lon="5.90609">
        <ele>251.538</ele>
        <time>2016-09-04T10:39:06Z</time>
      </trkpt>
      <trkpt lat="45.30216" lon="5.90609">
        <ele>251.488</ele>
        <time>2016-09-04T10:39:09Z</time>
      </trkpt>
      <trkpt lat="45.30216" lon="5.90609">
        <ele>251.262</ele>
        <time>2016-09-04T10:39:12Z</time>
      </trkpt>
      <trkpt lat="45.30216" lon="5.90609">
        <ele>250.996</ele>
        <time>2016-09-04T10:39:15Z</time>
      </trkpt>
      <trkpt lat="45.30216" lon="5.90609">
        <ele>251.147</ele>
        <time>2016-09-04T10:39:18Z</time>
      </trkpt>
      <trkpt lat="45.30216" lon="5.90609">
        <ele>251.106</ele>
        <time>2016-09-04T10:39:21Z</time>
      </trkpt>
      <trkpt lat="45.30216" lon="5.90609">
        <ele>250.764</ele>
        <time>2016-09-04T10:39:24Z</time>
      </trkpt>
      <trkpt lat="45.30216" lon="5.90609">
        <ele>251.045</ele>
        <time>2016-09-04T10:39:27Z</time>
      </trkpt>
      <trkpt lat="45.30216" lon="5.90609">
        <ele>251.298</ele>
        <time>2016-09-04T10:39:30Z</time>
      </trkpt>
      <trkpt lat="45.30216" lon="5.90609">
        <ele>251.302</ele>
        <time>2016-09-04T10:39:33Z</time>
      </trkpt>
      <trkpt lat="45.30216" lon="5.90609">
        <ele>251.124</ele>
        <time>2016-09-04T10:39:36Z</time>
      </trkpt>
      <trkpt lat="45.30216" lon="5.90609">
        <ele>250.636</ele>
        <time>2016-09-04T10:39:39Z</time>
      </trkpt>
      <trkpt lat="45.30216" lon="5.90609">
        <ele>251.293</ele>
        <time>2016-09-04T10:39:42Z</time>
      </trkpt>
      <trkpt lat="45.30216" lon="5.90609">
        <ele>251.384</ele>
        <time>2016-09-04T10:39:45Z</time>
      </trkpt>
      <trkpt lat="45.30216" lon="5.90609">
        <ele>251.404</ele>
        <time>2016-09-04T10:39:48Z</time>
      </trkpt>
      <trkpt lat="45.30216" lon="5.90609">
        <ele>251.146</ele>
        <time>2016-09-04T10:39:51Z</time>
      </trkpt>
      <trkpt lat="45.30216" lon="5.90609">
        <ele>251.329</ele>
        <time>2016-09-04T10:39:54Z</time>
      </trkpt>
      <trkpt lat="45.30216" lon="5.90608">
        <ele>251.425</ele>
        <time>2016-09-04T10:39:57Z</time>
      </trkpt>
      <trkpt lat="45.30216" lon="5.90608">
        <ele>251.236</ele>
        <time>2016-09-04T10:40:00Z</time>
      </trkpt>
      <trkpt lat="45.30216" lon="5.90608">
        <ele>251.033</ele>
        <time>2016-09-04T10:40:03Z</time>
      </trkpt>
      <trkpt lat="45.30216" lon="5.90608">
        <ele>250.633</ele>
        <time>2016-09-04T10:40:06Z</time>
      </trkpt>
      <trkpt lat="45.30216" lon="5.90608">
        <ele>251.015</ele>
        <time>2016-09-04T10:40:09Z</time>
      </trkpt>
      <trkpt lat="45.30216" lon="5.90608">
        <ele>250.888</ele>
        <time>2016-09-04T10:40:12Z</time>
      </trkpt>
      <trkpt lat="45.30216" lon="5.90608">
        <ele>250.332</ele>
        <time>2016-09-04T10:40:15Z</time>
      </trkpt>
      <trkpt lat="45.30216" lon="5.90607">
        <ele>250.509</ele>
        <time>2016-09-04T10:40:18Z</time>
      </trkpt>
      <trkpt lat="45.30216" lon="5.90607">
        <ele>250.799</ele>
        <time>2016-09-04T10:40:21Z</time>
      </trkpt>
      <trkpt lat="45.30214" lon="5.90607">
        <ele>250.611</ele>
        <time>2016-09-04T10:40:24Z</time>
      </trkpt>
      <trkpt lat="45.30214" lon="5.90608">
        <ele>250.442</ele>
        <time>2016-09-04T10:40:27Z</time>
      </trkpt>
      <trkpt lat="45.30215" lon="5.90608">
        <ele>250.516</ele>
        <time>2016-09-04T10:40:30Z</time>
      </trkpt>
      <trkpt lat="45.30215" lon="5.90607">
        <ele>249.754</ele>
        <time>2016-09-04T10:40:33Z</time>
      </trkpt>
      <trkpt lat="45.30216" lon="5.90606">
        <ele>250.343</ele>
        <time>2016-09-04T10:40:36Z</time>
      </trkpt>
      <trkpt lat="45.30215" lon="5.90605">
        <ele>250.511</ele>
        <time>2016-09-04T10:40:39Z</time>
      </trkpt>
      <trkpt lat="45.30216" lon="5.90604">
        <ele>250.301</ele>
        <time>2016-09-04T10:40:42Z</time>
      </trkpt>
      <trkpt lat="45.30216" lon="5.90602">
        <ele>250.273</ele>
        <time>2016-09-04T10:40:45Z</time>
      </trkpt>
      <trkpt lat="45.30217" lon="5.90602">
        <ele>250.34</ele>
        <time>2016-09-04T10:40:48Z</time>
      </trkpt>
      <trkpt lat="45.30216" lon="5.90601">
        <ele>250.496</ele>
        <time>2016-09-04T10:40:51Z</time>
      </trkpt>
      <trkpt lat="45.30216" lon="5.90601">
        <ele>250.196</ele>
        <time>2016-09-04T10:40:54Z</time>
      </trkpt>
      <trkpt lat="45.30216" lon="5.90601">
        <ele>249.745</ele>
        <time>2016-09-04T10:40:57Z</time>
      </trkpt>
      <trkpt lat="45.30216" lon="5.90601">
        <ele>250.067</ele>
        <time>2016-09-04T10:41:00Z</time>
      </trkpt>
      <trkpt lat="45.30216" lon="5.906">
        <ele>249.958</ele>
        <time>2016-09-04T10:41:03Z</time>
      </trkpt>
      <trkpt lat="45.30216" lon="5.90601">
        <ele>250.185</ele>
        <time>2016-09-04T10:41:06Z</time>
      </trkpt>
      <trkpt lat="45.30216" lon="5.90601">
        <ele>249.423</ele>
        <time>2016-09-04T10:41:09Z</time>
      </trkpt>
      <trkpt lat="45.30216" lon="5.90601">
        <ele>249.813</ele>
        <time>2016-09-04T10:41:12Z</time>
      </trkpt>
      <trkpt lat="45.30216" lon="5.906">
        <ele>250.04</ele>
        <time>2016-09-04T10:41:15Z</time>
      </trkpt>
      <trkpt lat="45.30216" lon="5.90599">
        <ele>249.854</ele>
        <time>2016-09-04T10:41:18Z</time>
      </trkpt>
      <trkpt lat="45.30216" lon="5.906">
        <ele>250.213</ele>
        <time>2016-09-04T10:41:21Z</time>
      </trkpt>
      <trkpt lat="45.30216" lon="5.906">
        <ele>249.621</ele>
        <time>2016-09-04T10:41:24Z</time>
      </trkpt>
      <trkpt lat="45.30216" lon="5.906">
        <ele>249.425</ele>
        <time>2016-09-04T10:41:27Z</time>
      </trkpt>
      <trkpt lat="45.30217" lon="5.90599">
        <ele>249.378</ele>
        <time>2016-09-04T10:41:30Z</time>
      </trkpt>
      <trkpt lat="45.30219" lon="5.90601">
        <ele>249.584</ele>
        <time>2016-09-04T10:41:33Z</time>
      </trkpt>
      <trkpt lat="45.30223" lon="5.90602">
        <ele>249.137</ele>
        <time>2016-09-04T10:41:36Z</time>
      </trkpt>
      <trkpt lat="45.30225" lon="5.90603">
        <ele>249.52</ele>
        <time>2016-09-04T10:41:39Z</time>
      </trkpt>
      <trkpt lat="45.30228" lon="5.90604">
        <ele>249.52</ele>
        <time>2016-09-04T10:41:42Z</time>
      </trkpt>
      <trkpt lat="45.30231" lon="5.90605">
        <ele>249.332</ele>
        <time>2016-09-04T10:41:45Z</time>
      </trkpt>
      <trkpt lat="45.30235" lon="5.90607">
        <ele>249.454</ele>
        <time>2016-09-04T10:41:48Z</time>
      </trkpt>
      <trkpt lat="45.30238" lon="5.90608">
        <ele>249.154</ele>
        <time>2016-09-04T10:41:51Z</time>
      </trkpt>
      <trkpt lat="45.3024" lon="5.90609">
        <ele>249.185</ele>
        <time>2016-09-04T10:41:54Z</time>
      </trkpt>
      <trkpt lat="45.30242" lon="5.90609">
        <ele>248.671</ele>
        <time>2016-09-04T10:41:57Z</time>
      </trkpt>
      <trkpt lat="45.30245" lon="5.9061">
        <ele>249.025</ele>
        <time>2016-09-04T10:42:00Z</time>
      </trkpt>
      <trkpt lat="45.30247" lon="5.90612">
        <ele>249.201</ele>
        <time>2016-09-04T10:42:03Z</time>
      </trkpt>
      <trkpt lat="45.30248" lon="5.90614">
        <ele>249.408</ele>
        <time>2016-09-04T10:42:06Z</time>
      </trkpt>
      <trkpt lat="45.3025" lon="5.90615">
        <ele>249.018</ele>
        <time>2016-09-04T10:42:09Z</time>
      </trkpt>
      <trkpt lat="45.30252" lon="5.90617">
        <ele>248.51</ele>
        <time>2016-09-04T10:42:12Z</time>
      </trkpt>
      <trkpt lat="45.30256" lon="5.90619">
        <ele>248.863</ele>
        <time>2016-09-04T10:42:15Z</time>
      </trkpt>
      <trkpt lat="45.30258" lon="5.90621">
        <ele>248.849</ele>
        <time>2016-09-04T10:42:18Z</time>
      </trkpt>
      <trkpt lat="45.30261" lon="5.90622">
        <ele>248.925</ele>
        <time>2016-09-04T10:42:21Z</time>
      </trkpt>
      <trkpt lat="45.30263" lon="5.90623">
        <ele>248.795</ele>
        <time>2016-09-04T10:42:24Z</time>
      </trkpt>
      <trkpt lat="45.30265" lon="5.90623">
        <ele>248.966</ele>
        <time>2016-09-04T10:42:27Z</time>
      </trkpt>
      <trkpt lat="45.30267" lon="5.90622">
        <ele>248.451</ele>
        <time>2016-09-04T10:42:30Z</time>
      </trkpt>
      <trkpt lat="45.30266" lon="5.90622">
        <ele>248.338</ele>
        <time>2016-09-04T10:42:33Z</time>
      </trkpt>
      <trkpt lat="45.30266" lon="5.90622">
        <ele>248.657</ele>
        <time>2016-09-04T10:42:36Z</time>
      </trkpt>
      <trkpt lat="45.30267" lon="5.90622">
        <ele>248.328</ele>
        <time>2016-09-04T10:42:39Z</time>
      </trkpt>
      <trkpt lat="45.30267" lon="5.90622">
        <ele>248.272</ele>
        <time>2016-09-04T10:42:42Z</time>
      </trkpt>
      <trkpt lat="45.30266" lon="5.90622">
        <ele>248.443</ele>
        <time>2016-09-04T10:42:45Z</time>
      </trkpt>
      <trkpt lat="45.30267" lon="5.90621">
        <ele>247.892</ele>
        <time>2016-09-04T10:42:48Z</time>
      </trkpt>
      <trkpt lat="45.30267" lon="5.90621">
        <ele>248.542</ele>
        <time>2016-09-04T10:42:51Z</time>
      </trkpt>
      <trkpt lat="45.30266" lon="5.90621">
        <ele>248.185</ele>
        <time>2016-09-04T10:42:54Z</time>
      </trkpt>
      <trkpt lat="45.30266" lon="5.90621">
        <ele>248.211</ele>
        <time>2016-09-04T10:42:57Z</time>
      </trkpt>
      <trkpt lat="45.30266" lon="5.90622">
        <ele>248.02</ele>
        <time>2016-09-04T10:43:00Z</time>
      </trkpt>
      <trkpt lat="45.30265" lon="5.90622">
        <ele>247.832</ele>
        <time>2016-09-04T10:43:03Z</time>
      </trkpt>
      <trkpt lat="45.30265" lon="5.90622">
        <ele>247.898</ele>
        <time>2016-09-04T10:43:06Z</time>
      </trkpt>
      <trkpt lat="45.30265" lon="5.90623">
        <ele>248.247</ele>
        <time>2016-09-04T10:43:09Z</time>
      </trkpt>
      <trkpt lat="45.30265" lon="5.90623">
        <ele>247.813</ele>
        <time>2016-09-04T10:43:12Z</time>
      </trkpt>
      <trkpt lat="45.30265" lon="5.90624">
        <ele>247.703</ele>
        <time>2016-09-04T10:43:15Z</time>
      </trkpt>
      <trkpt lat="45.30264" lon="5.90626">
        <ele>247.875</ele>
        <time>2016-09-04T10:43:18Z</time>
      </trkpt>
      <trkpt lat="45.30262" lon="5.9063">
        <ele>247.637</ele>
        <time>2016-09-04T10:43:21Z</time>
      </trkpt>
      <trkpt lat="45.30261" lon="5.90632">
        <ele>247.584</ele>
        <time>2016-09-04T10:43:24Z</time>
      </trkpt>
      <trkpt lat="45.30261" lon="5.90633">
        <ele>248.243</ele>
        <time>2016-09-04T10:43:27Z</time>
      </trkpt>
      <trkpt lat="45.30261" lon="5.90633">
        <ele>248.176</ele>
        <time>2016-09-04T10:43:30Z</time>
      </trkpt>
    </trkseg>
  </trk>
</gpx>